<?xml version="1.0" encoding="UTF-8" standalone="no" ?>
<gpx xmlns="http://www.topografix.com/GPX/1/1" xmlns:xsi="http://www.w3.org/2001/XMLSchema-instance" xsi:schemaLocation="http://www.topografix.com/GPX/1/1 http://www.topografix.com/GPX/1/1/gpx.xsd" version="1.1" creator="VisuGPX - https://www.visugpx.com">
  <metadata>
    <name>GRAVEL 60 PB 2026</name>
    <desc><![CDATA[Rando Pierre BETECHER 2026]]></desc>
  </metadata>
  <trk>
    <name><![CDATA[GRAVEL 60 PB 2026]]></name>
    <trkseg>
      <trkpt lat="47.23626" lon="-1.71918">
        <ele>18.262482</ele>
        <time>2026-09-03T13:26:26.426Z</time>
      </trkpt>
      <trkpt lat="47.23626" lon="-1.71918">
        <ele>18.262482</ele>
        <time>2026-09-03T13:26:26.451Z</time>
      </trkpt>
      <trkpt lat="47.23626" lon="-1.71918">
        <ele>18.262482</ele>
        <time>2026-09-03T13:26:26.451Z</time>
      </trkpt>
      <trkpt lat="47.23651" lon="-1.72003">
        <ele>18.262482</ele>
        <time>2026-09-03T13:26:39.886Z</time>
      </trkpt>
      <trkpt lat="47.23643" lon="-1.72018">
        <ele>18.262482</ele>
        <time>2026-09-03T13:26:41.446Z</time>
      </trkpt>
      <trkpt lat="47.23622" lon="-1.72042">
        <ele>18.017161</ele>
        <time>2026-09-03T13:26:44.386Z</time>
      </trkpt>
      <trkpt lat="47.23598" lon="-1.72061">
        <ele>17.465952</ele>
        <time>2026-09-03T13:26:47.484Z</time>
      </trkpt>
      <trkpt lat="47.23594" lon="-1.72064">
        <ele>17.373041</ele>
        <time>2026-09-03T13:26:48.021Z</time>
      </trkpt>
      <trkpt lat="47.23582" lon="-1.72072">
        <ele>17.107101</ele>
        <time>2026-09-03T13:26:49.569Z</time>
      </trkpt>
      <trkpt lat="47.23528" lon="-1.72089">
        <ele>15.966528</ele>
        <time>2026-09-03T13:26:56.371Z</time>
      </trkpt>
      <trkpt lat="47.23512" lon="-1.72094">
        <ele>15.642689</ele>
        <time>2026-09-03T13:26:58.431Z</time>
      </trkpt>
      <trkpt lat="47.23444" lon="-1.72124">
        <ele>14.456777</ele>
        <time>2026-09-03T13:27:08.108Z</time>
      </trkpt>
      <trkpt lat="47.23437" lon="-1.7212">
        <ele>14.404409</ele>
        <time>2026-09-03T13:27:09.160Z</time>
      </trkpt>
      <trkpt lat="47.23437" lon="-1.7212">
        <ele>14.404409</ele>
        <time>2026-09-03T13:27:09.170Z</time>
      </trkpt>
      <trkpt lat="47.23401" lon="-1.72069">
        <ele>14.071737</ele>
        <time>2026-09-03T13:27:19.718Z</time>
      </trkpt>
      <trkpt lat="47.2337" lon="-1.72078">
        <ele>13.856015</ele>
        <time>2026-09-03T13:27:25.974Z</time>
      </trkpt>
      <trkpt lat="47.23364" lon="-1.72086">
        <ele>13.800427</ele>
        <time>2026-09-03T13:27:27.563Z</time>
      </trkpt>
      <trkpt lat="47.23357" lon="-1.72113">
        <ele>13.670087</ele>
        <time>2026-09-03T13:27:31.578Z</time>
      </trkpt>
      <trkpt lat="47.23349" lon="-1.72145">
        <ele>13.514995</ele>
        <time>2026-09-03T13:27:36.152Z</time>
      </trkpt>
      <trkpt lat="47.23343" lon="-1.72162">
        <ele>13.42566</ele>
        <time>2026-09-03T13:27:39.392Z</time>
      </trkpt>
      <trkpt lat="47.23341" lon="-1.72174">
        <ele>13.371016</ele>
        <time>2026-09-03T13:27:41.529Z</time>
      </trkpt>
      <trkpt lat="47.23338" lon="-1.72196">
        <ele>13.321034</ele>
        <time>2026-09-03T13:27:45.162Z</time>
      </trkpt>
      <trkpt lat="47.23327" lon="-1.72211">
        <ele>13.269901</ele>
        <time>2026-09-03T13:27:48.896Z</time>
      </trkpt>
      <trkpt lat="47.23228" lon="-1.72247">
        <ele>12.927084</ele>
        <time>2026-09-03T13:28:14.155Z</time>
      </trkpt>
      <trkpt lat="47.23237" lon="-1.72298">
        <ele>12.805118</ele>
        <time>2026-09-03T13:28:18.986Z</time>
      </trkpt>
      <trkpt lat="47.23281" lon="-1.72513">
        <ele>11.949961</ele>
        <time>2026-09-03T13:28:37.470Z</time>
      </trkpt>
      <trkpt lat="47.23309" lon="-1.7264">
        <ele>12.176911</ele>
        <time>2026-09-03T13:28:49.495Z</time>
      </trkpt>
      <trkpt lat="47.2337" lon="-1.72901">
        <ele>14.119883</ele>
        <time>2026-09-03T13:29:46.264Z</time>
      </trkpt>
      <trkpt lat="47.23387" lon="-1.72955">
        <ele>14.683635</ele>
        <time>2026-09-03T13:29:59.487Z</time>
      </trkpt>
      <trkpt lat="47.23402" lon="-1.72986">
        <ele>15.047825</ele>
        <time>2026-09-03T13:30:07.898Z</time>
      </trkpt>
      <trkpt lat="47.2343" lon="-1.73067">
        <ele>15.711488</ele>
        <time>2026-09-03T13:30:26.567Z</time>
      </trkpt>
      <trkpt lat="47.23445" lon="-1.73141">
        <ele>15.07072</ele>
        <time>2026-09-03T13:30:39.925Z</time>
      </trkpt>
      <trkpt lat="47.23454" lon="-1.7322">
        <ele>14.399867</ele>
        <time>2026-09-03T13:30:52.413Z</time>
      </trkpt>
      <trkpt lat="47.23462" lon="-1.73244">
        <ele>14.184264</ele>
        <time>2026-09-03T13:30:56.231Z</time>
      </trkpt>
      <trkpt lat="47.23472" lon="-1.73266">
        <ele>13.965811</ele>
        <time>2026-09-03T13:31:00.027Z</time>
      </trkpt>
      <trkpt lat="47.23474" lon="-1.73275">
        <ele>13.880501</ele>
        <time>2026-09-03T13:31:01.499Z</time>
      </trkpt>
      <trkpt lat="47.23483" lon="-1.73313">
        <ele>13.455813</ele>
        <time>2026-09-03T13:31:07.157Z</time>
      </trkpt>
      <trkpt lat="47.23486" lon="-1.73356">
        <ele>12.494043</ele>
        <time>2026-09-03T13:31:13.238Z</time>
      </trkpt>
      <trkpt lat="47.23485" lon="-1.73475">
        <ele>9.870175</ele>
        <time>2026-09-03T13:31:29.618Z</time>
      </trkpt>
      <trkpt lat="47.23487" lon="-1.73483">
        <ele>9.677271</ele>
        <time>2026-09-03T13:31:30.821Z</time>
      </trkpt>
      <trkpt lat="47.23487" lon="-1.73529">
        <ele>8.652189</ele>
        <time>2026-09-03T13:31:37.234Z</time>
      </trkpt>
      <trkpt lat="47.23493" lon="-1.73565">
        <ele>7.853163</ele>
        <time>2026-09-03T13:31:42.254Z</time>
      </trkpt>
      <trkpt lat="47.23489" lon="-1.73609">
        <ele>7.278359</ele>
        <time>2026-09-03T13:31:48.638Z</time>
      </trkpt>
      <trkpt lat="47.2349" lon="-1.73632">
        <ele>7.022492</ele>
        <time>2026-09-03T13:31:51.824Z</time>
      </trkpt>
      <trkpt lat="47.23493" lon="-1.7364">
        <ele>6.910052</ele>
        <time>2026-09-03T13:31:53.249Z</time>
      </trkpt>
      <trkpt lat="47.23513" lon="-1.73685">
        <ele>6.284663</ele>
        <time>2026-09-03T13:31:57.205Z</time>
      </trkpt>
      <trkpt lat="47.23521" lon="-1.73702">
        <ele>6.053836</ele>
        <time>2026-09-03T13:31:58.710Z</time>
      </trkpt>
      <trkpt lat="47.23425" lon="-1.73846">
        <ele>4.572299</ele>
        <time>2026-09-03T13:32:31.759Z</time>
      </trkpt>
      <trkpt lat="47.23456" lon="-1.7387">
        <ele>4.501843</ele>
        <time>2026-09-03T13:32:37.267Z</time>
      </trkpt>
      <trkpt lat="47.23469" lon="-1.73885">
        <ele>4.46905</ele>
        <time>2026-09-03T13:32:39.850Z</time>
      </trkpt>
      <trkpt lat="47.23479" lon="-1.73917">
        <ele>4.42082</ele>
        <time>2026-09-03T13:32:43.650Z</time>
      </trkpt>
      <trkpt lat="47.23473" lon="-1.74061">
        <ele>4.580776</ele>
        <time>2026-09-03T13:32:59.758Z</time>
      </trkpt>
      <trkpt lat="47.23458" lon="-1.74207">
        <ele>5.078503</ele>
        <time>2026-09-03T13:33:18.220Z</time>
      </trkpt>
      <trkpt lat="47.23434" lon="-1.7428">
        <ele>5.22542</ele>
        <time>2026-09-03T13:33:28.151Z</time>
      </trkpt>
      <trkpt lat="47.23432" lon="-1.74297">
        <ele>5.227646</ele>
        <time>2026-09-03T13:33:30.219Z</time>
      </trkpt>
      <trkpt lat="47.23432" lon="-1.74316">
        <ele>5.230048</ele>
        <time>2026-09-03T13:33:32.436Z</time>
      </trkpt>
      <trkpt lat="47.23437" lon="-1.74345">
        <ele>5.234004</ele>
        <time>2026-09-03T13:33:36.068Z</time>
      </trkpt>
      <trkpt lat="47.23446" lon="-1.74362">
        <ele>5.236657</ele>
        <time>2026-09-03T13:33:38.470Z</time>
      </trkpt>
      <trkpt lat="47.23455" lon="-1.74373">
        <ele>5.238946</ele>
        <time>2026-09-03T13:33:40.508Z</time>
      </trkpt>
      <trkpt lat="47.23575" lon="-1.74473">
        <ele>4.712504</ele>
        <time>2026-09-03T13:34:00.948Z</time>
      </trkpt>
      <trkpt lat="47.23604" lon="-1.74488">
        <ele>4.40978</ele>
        <time>2026-09-03T13:34:05.242Z</time>
      </trkpt>
      <trkpt lat="47.23661" lon="-1.74504">
        <ele>3.849908</ele>
        <time>2026-09-03T13:34:13.112Z</time>
      </trkpt>
      <trkpt lat="47.23763" lon="-1.74526">
        <ele>3.155819</ele>
        <time>2026-09-03T13:34:27.510Z</time>
      </trkpt>
      <trkpt lat="47.23804" lon="-1.74545">
        <ele>2.941605</ele>
        <time>2026-09-03T13:34:33.841Z</time>
      </trkpt>
      <trkpt lat="47.23822" lon="-1.74563">
        <ele>2.829195</ele>
        <time>2026-09-03T13:34:37.191Z</time>
      </trkpt>
      <trkpt lat="47.23877" lon="-1.7466">
        <ele>3.429678</ele>
        <time>2026-09-03T13:34:51.161Z</time>
      </trkpt>
      <trkpt lat="47.23912" lon="-1.74703">
        <ele>4.414131</ele>
        <time>2026-09-03T13:35:00.539Z</time>
      </trkpt>
      <trkpt lat="47.23927" lon="-1.74723">
        <ele>4.851763</ele>
        <time>2026-09-03T13:35:05.502Z</time>
      </trkpt>
      <trkpt lat="47.23954" lon="-1.7471">
        <ele>5.468091</ele>
        <time>2026-09-03T13:35:13.263Z</time>
      </trkpt>
      <trkpt lat="47.2397" lon="-1.74707">
        <ele>5.831806</ele>
        <time>2026-09-03T13:35:18.120Z</time>
      </trkpt>
      <trkpt lat="47.23986" lon="-1.74707">
        <ele>6.167487</ele>
        <time>2026-09-03T13:35:22.740Z</time>
      </trkpt>
      <trkpt lat="47.23984" lon="-1.74713">
        <ele>6.257934</ele>
        <time>2026-09-03T13:35:23.990Z</time>
      </trkpt>
      <trkpt lat="47.23989" lon="-1.7473">
        <ele>6.530012</ele>
        <time>2026-09-03T13:35:27.822Z</time>
      </trkpt>
      <trkpt lat="47.24031" lon="-1.74741">
        <ele>7.622308</ele>
        <time>2026-09-03T13:35:41.207Z</time>
      </trkpt>
      <trkpt lat="47.24056" lon="-1.74744">
        <ele>8.25422</ele>
        <time>2026-09-03T13:35:48.659Z</time>
      </trkpt>
      <trkpt lat="47.2408" lon="-1.74751">
        <ele>8.868176</ele>
        <time>2026-09-03T13:35:55.550Z</time>
      </trkpt>
      <trkpt lat="47.24107" lon="-1.74774">
        <ele>9.668599</ele>
        <time>2026-09-03T13:36:03.613Z</time>
      </trkpt>
      <trkpt lat="47.24119" lon="-1.74714">
        <ele>10.745499</ele>
        <time>2026-09-03T13:36:16.300Z</time>
      </trkpt>
      <trkpt lat="47.24121" lon="-1.74693">
        <ele>11.075324</ele>
        <time>2026-09-03T13:36:20.030Z</time>
      </trkpt>
      <trkpt lat="47.24112" lon="-1.74596">
        <ele>11.251904</ele>
        <time>2026-09-03T13:36:35.923Z</time>
      </trkpt>
      <trkpt lat="47.24115" lon="-1.74538">
        <ele>11.357137</ele>
        <time>2026-09-03T13:36:45.670Z</time>
      </trkpt>
      <trkpt lat="47.24107" lon="-1.74506">
        <ele>11.419079</ele>
        <time>2026-09-03T13:36:51.977Z</time>
      </trkpt>
      <trkpt lat="47.24102" lon="-1.74456">
        <ele>11.511427</ele>
        <time>2026-09-03T13:37:01.730Z</time>
      </trkpt>
      <trkpt lat="47.24166" lon="-1.74436">
        <ele>12.084252</ele>
        <time>2026-09-03T13:37:21.549Z</time>
      </trkpt>
      <trkpt lat="47.24549" lon="-1.74232">
        <ele>16.14259</ele>
        <time>2026-09-03T13:39:20.128Z</time>
      </trkpt>
      <trkpt lat="47.24555" lon="-1.7424">
        <ele>16.213624</ele>
        <time>2026-09-03T13:39:22.500Z</time>
      </trkpt>
      <trkpt lat="47.24613" lon="-1.74319">
        <ele>16.844222</ele>
        <time>2026-09-03T13:39:44.752Z</time>
      </trkpt>
      <trkpt lat="47.24617" lon="-1.74325">
        <ele>16.831194</ele>
        <time>2026-09-03T13:39:46.430Z</time>
      </trkpt>
      <trkpt lat="47.24641" lon="-1.74363">
        <ele>16.757775</ele>
        <time>2026-09-03T13:39:55.771Z</time>
      </trkpt>
      <trkpt lat="47.24778" lon="-1.74539">
        <ele>16.388569</ele>
        <time>2026-09-03T13:40:39.764Z</time>
      </trkpt>
      <trkpt lat="47.24796" lon="-1.74571">
        <ele>16.337057</ele>
        <time>2026-09-03T13:40:46.740Z</time>
      </trkpt>
      <trkpt lat="47.24787" lon="-1.74577">
        <ele>16.318278</ele>
        <time>2026-09-03T13:40:48.124Z</time>
      </trkpt>
      <trkpt lat="47.24762" lon="-1.7458">
        <ele>16.272555</ele>
        <time>2026-09-03T13:40:51.607Z</time>
      </trkpt>
      <trkpt lat="47.24714" lon="-1.74547">
        <ele>16.175184</ele>
        <time>2026-09-03T13:40:59.075Z</time>
      </trkpt>
      <trkpt lat="47.24696" lon="-1.74537">
        <ele>16.101349</ele>
        <time>2026-09-03T13:41:01.717Z</time>
      </trkpt>
      <trkpt lat="47.24683" lon="-1.74535">
        <ele>15.937676</ele>
        <time>2026-09-03T13:41:03.566Z</time>
      </trkpt>
      <trkpt lat="47.24668" lon="-1.74539">
        <ele>15.740915</ele>
        <time>2026-09-03T13:41:05.746Z</time>
      </trkpt>
      <trkpt lat="47.24643" lon="-1.74551">
        <ele>15.411399</ele>
        <time>2026-09-03T13:41:09.236Z</time>
      </trkpt>
      <trkpt lat="47.24605" lon="-1.74575">
        <ele>14.894819</ele>
        <time>2026-09-03T13:41:14.161Z</time>
      </trkpt>
      <trkpt lat="47.24555" lon="-1.74592">
        <ele>14.258456</ele>
        <time>2026-09-03T13:41:19.637Z</time>
      </trkpt>
      <trkpt lat="47.24513" lon="-1.74615">
        <ele>13.60511</ele>
        <time>2026-09-03T13:41:24.273Z</time>
      </trkpt>
      <trkpt lat="47.24487" lon="-1.74646">
        <ele>12.971691</ele>
        <time>2026-09-03T13:41:27.836Z</time>
      </trkpt>
      <trkpt lat="47.24454" lon="-1.74713">
        <ele>11.945536</ele>
        <time>2026-09-03T13:41:33.817Z</time>
      </trkpt>
      <trkpt lat="47.24435" lon="-1.74732">
        <ele>11.522322</ele>
        <time>2026-09-03T13:41:36.382Z</time>
      </trkpt>
      <trkpt lat="47.2441" lon="-1.74739">
        <ele>11.052387</ele>
        <time>2026-09-03T13:41:39.304Z</time>
      </trkpt>
      <trkpt lat="47.24349" lon="-1.74749">
        <ele>10.342682</ele>
        <time>2026-09-03T13:41:46.842Z</time>
      </trkpt>
      <trkpt lat="47.2432" lon="-1.74763">
        <ele>10.137609</ele>
        <time>2026-09-03T13:41:50.924Z</time>
      </trkpt>
      <trkpt lat="47.24286" lon="-1.74788">
        <ele>9.883499</ele>
        <time>2026-09-03T13:41:56.135Z</time>
      </trkpt>
      <trkpt lat="47.24248" lon="-1.74822">
        <ele>9.591457</ele>
        <time>2026-09-03T13:42:01.718Z</time>
      </trkpt>
      <trkpt lat="47.24199" lon="-1.74855">
        <ele>8.969682</ele>
        <time>2026-09-03T13:42:08.082Z</time>
      </trkpt>
      <trkpt lat="47.24205" lon="-1.74861">
        <ele>8.830663</ele>
        <time>2026-09-03T13:42:08.946Z</time>
      </trkpt>
      <trkpt lat="47.24431" lon="-1.74983">
        <ele>5.17902</ele>
        <time>2026-09-03T13:42:34.842Z</time>
      </trkpt>
      <trkpt lat="47.24451" lon="-1.74999">
        <ele>4.953179</ele>
        <time>2026-09-03T13:42:37.603Z</time>
      </trkpt>
      <trkpt lat="47.24556" lon="-1.75112">
        <ele>4.477697</ele>
        <time>2026-09-03T13:42:57.117Z</time>
      </trkpt>
      <trkpt lat="47.24588" lon="-1.75147">
        <ele>4.601739</ele>
        <time>2026-09-03T13:43:03.689Z</time>
      </trkpt>
      <trkpt lat="47.24692" lon="-1.75241">
        <ele>4.794133</ele>
        <time>2026-09-03T13:43:20.898Z</time>
      </trkpt>
      <trkpt lat="47.2481" lon="-1.7542">
        <ele>5.505347</ele>
        <time>2026-09-03T13:43:42.886Z</time>
      </trkpt>
      <trkpt lat="47.24822" lon="-1.75439">
        <ele>5.935501</ele>
        <time>2026-09-03T13:43:46.173Z</time>
      </trkpt>
      <trkpt lat="47.2483" lon="-1.75466">
        <ele>6.41885</ele>
        <time>2026-09-03T13:43:50.133Z</time>
      </trkpt>
      <trkpt lat="47.24854" lon="-1.75437">
        <ele>7.158739</ele>
        <time>2026-09-03T13:43:57.582Z</time>
      </trkpt>
      <trkpt lat="47.24879" lon="-1.75371">
        <ele>8.418396</ele>
        <time>2026-09-03T13:44:12.945Z</time>
      </trkpt>
      <trkpt lat="47.24896" lon="-1.75345">
        <ele>9.012021</ele>
        <time>2026-09-03T13:44:20.975Z</time>
      </trkpt>
      <trkpt lat="47.24914" lon="-1.75325">
        <ele>9.840588</ele>
        <time>2026-09-03T13:44:28.615Z</time>
      </trkpt>
      <trkpt lat="47.24935" lon="-1.75293">
        <ele>10.979007</ele>
        <time>2026-09-03T13:44:38.610Z</time>
      </trkpt>
      <trkpt lat="47.24951" lon="-1.75257">
        <ele>12.085217</ele>
        <time>2026-09-03T13:44:48.004Z</time>
      </trkpt>
      <trkpt lat="47.24954" lon="-1.75233">
        <ele>12.716419</ele>
        <time>2026-09-03T13:44:53.166Z</time>
      </trkpt>
      <trkpt lat="47.24963" lon="-1.75213">
        <ele>13.324624</ele>
        <time>2026-09-03T13:44:58.073Z</time>
      </trkpt>
      <trkpt lat="47.25011" lon="-1.75171">
        <ele>15.438822</ele>
        <time>2026-09-03T13:45:13.842Z</time>
      </trkpt>
      <trkpt lat="47.25065" lon="-1.75121">
        <ele>16.136845</ele>
        <time>2026-09-03T13:45:27.775Z</time>
      </trkpt>
      <trkpt lat="47.25076" lon="-1.75113">
        <ele>16.204679</ele>
        <time>2026-09-03T13:45:30.005Z</time>
      </trkpt>
      <trkpt lat="47.2511" lon="-1.75085">
        <ele>16.429675</ele>
        <time>2026-09-03T13:45:36.744Z</time>
      </trkpt>
      <trkpt lat="47.25156" lon="-1.75051">
        <ele>16.728123</ele>
        <time>2026-09-03T13:45:49.546Z</time>
      </trkpt>
      <trkpt lat="47.25162" lon="-1.75055">
        <ele>16.767761</ele>
        <time>2026-09-03T13:45:51.209Z</time>
      </trkpt>
      <trkpt lat="47.25395" lon="-1.75358">
        <ele>14.49227</ele>
        <time>2026-09-03T13:47:04.517Z</time>
      </trkpt>
      <trkpt lat="47.25511" lon="-1.75512">
        <ele>14.191544</ele>
        <time>2026-09-03T13:47:24.361Z</time>
      </trkpt>
      <trkpt lat="47.25524" lon="-1.75526">
        <ele>14.223476</ele>
        <time>2026-09-03T13:47:26.962Z</time>
      </trkpt>
      <trkpt lat="47.25575" lon="-1.75598">
        <ele>14.367191</ele>
        <time>2026-09-03T13:47:39.986Z</time>
      </trkpt>
      <trkpt lat="47.25642" lon="-1.75689">
        <ele>15.190466</ele>
        <time>2026-09-03T13:47:58.516Z</time>
      </trkpt>
      <trkpt lat="47.25701" lon="-1.75773">
        <ele>15.954852</ele>
        <time>2026-09-03T13:48:13.918Z</time>
      </trkpt>
      <trkpt lat="47.25806" lon="-1.75911">
        <ele>15.68871</ele>
        <time>2026-09-03T13:48:34.729Z</time>
      </trkpt>
      <trkpt lat="47.25985" lon="-1.76144">
        <ele>14.150641</ele>
        <time>2026-09-03T13:49:08.133Z</time>
      </trkpt>
      <trkpt lat="47.2596" lon="-1.76215">
        <ele>13.437271</ele>
        <time>2026-09-03T13:49:14.527Z</time>
      </trkpt>
      <trkpt lat="47.26001" lon="-1.76293">
        <ele>12.542087</ele>
        <time>2026-09-03T13:49:22.312Z</time>
      </trkpt>
      <trkpt lat="47.26104" lon="-1.76505">
        <ele>9.493795</ele>
        <time>2026-09-03T13:49:41.777Z</time>
      </trkpt>
      <trkpt lat="47.26085" lon="-1.76612">
        <ele>8.188396</ele>
        <time>2026-09-03T13:49:49.941Z</time>
      </trkpt>
      <trkpt lat="47.2609" lon="-1.7668">
        <ele>7.531712</ele>
        <time>2026-09-03T13:49:54.913Z</time>
      </trkpt>
      <trkpt lat="47.26106" lon="-1.76718">
        <ele>7.106876</ele>
        <time>2026-09-03T13:49:58.166Z</time>
      </trkpt>
      <trkpt lat="47.26134" lon="-1.76772">
        <ele>6.45443</ele>
        <time>2026-09-03T13:50:03.454Z</time>
      </trkpt>
      <trkpt lat="47.26146" lon="-1.76792">
        <ele>6.198897</ele>
        <time>2026-09-03T13:50:07.798Z</time>
      </trkpt>
      <trkpt lat="47.26155" lon="-1.76835">
        <ele>6.247499</ele>
        <time>2026-09-03T13:50:15.502Z</time>
      </trkpt>
      <trkpt lat="47.26164" lon="-1.76911">
        <ele>7.133966</ele>
        <time>2026-09-03T13:50:30.787Z</time>
      </trkpt>
      <trkpt lat="47.26183" lon="-1.77012">
        <ele>8.338574</ele>
        <time>2026-09-03T13:50:54.874Z</time>
      </trkpt>
      <trkpt lat="47.26194" lon="-1.7709">
        <ele>9.355897</ele>
        <time>2026-09-03T13:51:14.314Z</time>
      </trkpt>
      <trkpt lat="47.26212" lon="-1.77181">
        <ele>10.892426</ele>
        <time>2026-09-03T13:51:36.891Z</time>
      </trkpt>
      <trkpt lat="47.26252" lon="-1.77352">
        <ele>13.612292</ele>
        <time>2026-09-03T13:52:17.904Z</time>
      </trkpt>
      <trkpt lat="47.26254" lon="-1.77382">
        <ele>13.888147</ele>
        <time>2026-09-03T13:52:24.242Z</time>
      </trkpt>
      <trkpt lat="47.26313" lon="-1.77421">
        <ele>14.781711</ele>
        <time>2026-09-03T13:52:44.112Z</time>
      </trkpt>
      <trkpt lat="47.26381" lon="-1.77449">
        <ele>15.756658</ele>
        <time>2026-09-03T13:53:04.534Z</time>
      </trkpt>
      <trkpt lat="47.26391" lon="-1.77456">
        <ele>15.850828</ele>
        <time>2026-09-03T13:53:07.453Z</time>
      </trkpt>
      <trkpt lat="47.26396" lon="-1.77465">
        <ele>15.906455</ele>
        <time>2026-09-03T13:53:09.876Z</time>
      </trkpt>
      <trkpt lat="47.26413" lon="-1.77453">
        <ele>16.029246</ele>
        <time>2026-09-03T13:53:13.404Z</time>
      </trkpt>
      <trkpt lat="47.265" lon="-1.77486">
        <ele>16.618013</ele>
        <time>2026-09-03T13:53:38.473Z</time>
      </trkpt>
      <trkpt lat="47.2658" lon="-1.77504">
        <ele>17.14242</ele>
        <time>2026-09-03T13:54:00.388Z</time>
      </trkpt>
      <trkpt lat="47.26679" lon="-1.77536">
        <ele>17.793416</ele>
        <time>2026-09-03T13:54:28.395Z</time>
      </trkpt>
      <trkpt lat="47.26733" lon="-1.77568">
        <ele>18.148444</ele>
        <time>2026-09-03T13:54:44.907Z</time>
      </trkpt>
      <trkpt lat="47.26801" lon="-1.77601">
        <ele>18.326095</ele>
        <time>2026-09-03T13:55:04.681Z</time>
      </trkpt>
      <trkpt lat="47.26817" lon="-1.77613">
        <ele>18.372785</ele>
        <time>2026-09-03T13:55:09.706Z</time>
      </trkpt>
      <trkpt lat="47.2688" lon="-1.77687">
        <ele>18.573497</ele>
        <time>2026-09-03T13:55:30.255Z</time>
      </trkpt>
      <trkpt lat="47.26944" lon="-1.77834">
        <ele>17.35646</ele>
        <time>2026-09-03T13:55:58.422Z</time>
      </trkpt>
      <trkpt lat="47.26959" lon="-1.77854">
        <ele>17.138394</ele>
        <time>2026-09-03T13:56:02.978Z</time>
      </trkpt>
      <trkpt lat="47.27065" lon="-1.77942">
        <ele>14.780976</ele>
        <time>2026-09-03T13:56:30.100Z</time>
      </trkpt>
      <trkpt lat="47.27094" lon="-1.77985">
        <ele>13.792373</ele>
        <time>2026-09-03T13:56:38.663Z</time>
      </trkpt>
      <trkpt lat="47.27101" lon="-1.78011">
        <ele>13.331996</ele>
        <time>2026-09-03T13:56:42.599Z</time>
      </trkpt>
      <trkpt lat="47.27104" lon="-1.78013">
        <ele>13.236159</ele>
        <time>2026-09-03T13:56:43.065Z</time>
      </trkpt>
      <trkpt lat="47.27107" lon="-1.78012">
        <ele>13.154052</ele>
        <time>2026-09-03T13:56:43.478Z</time>
      </trkpt>
      <trkpt lat="47.2711" lon="-1.78015">
        <ele>13.068361</ele>
        <time>2026-09-03T13:56:43.890Z</time>
      </trkpt>
      <trkpt lat="47.27109" lon="-1.78023">
        <ele>12.927692</ele>
        <time>2026-09-03T13:56:44.584Z</time>
      </trkpt>
      <trkpt lat="47.27116" lon="-1.78038">
        <ele>12.624277</ele>
        <time>2026-09-03T13:56:45.817Z</time>
      </trkpt>
      <trkpt lat="47.27175" lon="-1.78213">
        <ele>9.452174</ele>
        <time>2026-09-03T13:56:59.129Z</time>
      </trkpt>
      <trkpt lat="47.27218" lon="-1.78355">
        <ele>8.485474</ele>
        <time>2026-09-03T13:57:11.754Z</time>
      </trkpt>
      <trkpt lat="47.2723" lon="-1.7838">
        <ele>8.745681</ele>
        <time>2026-09-03T13:57:14.966Z</time>
      </trkpt>
      <trkpt lat="47.27245" lon="-1.78398">
        <ele>8.988616</ele>
        <time>2026-09-03T13:57:18.256Z</time>
      </trkpt>
      <trkpt lat="47.27259" lon="-1.78415">
        <ele>9.213894</ele>
        <time>2026-09-03T13:57:21.659Z</time>
      </trkpt>
      <trkpt lat="47.27287" lon="-1.78451">
        <ele>9.684157</ele>
        <time>2026-09-03T13:57:30.040Z</time>
      </trkpt>
      <trkpt lat="47.27304" lon="-1.78437">
        <ele>9.922398</ele>
        <time>2026-09-03T13:57:34.794Z</time>
      </trkpt>
      <trkpt lat="47.27311" lon="-1.7843">
        <ele>10.03332</ele>
        <time>2026-09-03T13:57:37.008Z</time>
      </trkpt>
      <trkpt lat="47.27321" lon="-1.7845">
        <ele>10.281644</ele>
        <time>2026-09-03T13:57:41.306Z</time>
      </trkpt>
      <trkpt lat="47.27341" lon="-1.78455">
        <ele>10.745984</ele>
        <time>2026-09-03T13:57:46.217Z</time>
      </trkpt>
      <trkpt lat="47.27349" lon="-1.78462">
        <ele>10.971942</ele>
        <time>2026-09-03T13:57:48.504Z</time>
      </trkpt>
      <trkpt lat="47.27374" lon="-1.78507">
        <ele>11.908073</ele>
        <time>2026-09-03T13:57:57.965Z</time>
      </trkpt>
      <trkpt lat="47.27405" lon="-1.7856">
        <ele>13.01867</ele>
        <time>2026-09-03T13:58:09.211Z</time>
      </trkpt>
      <trkpt lat="47.27457" lon="-1.78657">
        <ele>14.638065</ele>
        <time>2026-09-03T13:58:25.617Z</time>
      </trkpt>
      <trkpt lat="47.27471" lon="-1.78692">
        <ele>14.85645</ele>
        <time>2026-09-03T13:58:29.964Z</time>
      </trkpt>
      <trkpt lat="47.27475" lon="-1.78714">
        <ele>14.983471</ele>
        <time>2026-09-03T13:58:32.451Z</time>
      </trkpt>
      <trkpt lat="47.27475" lon="-1.78734">
        <ele>15.091028</ele>
        <time>2026-09-03T13:58:34.530Z</time>
      </trkpt>
      <trkpt lat="47.27473" lon="-1.78753">
        <ele>15.194342</ele>
        <time>2026-09-03T13:58:36.519Z</time>
      </trkpt>
      <trkpt lat="47.27436" lon="-1.7893">
        <ele>16.070942</ele>
        <time>2026-09-03T13:58:56.400Z</time>
      </trkpt>
      <trkpt lat="47.27439" lon="-1.78932">
        <ele>16.087594</ele>
        <time>2026-09-03T13:58:57.062Z</time>
      </trkpt>
      <trkpt lat="47.27446" lon="-1.78948">
        <ele>16.147044</ele>
        <time>2026-09-03T13:58:59.440Z</time>
      </trkpt>
      <trkpt lat="47.27478" lon="-1.79049">
        <ele>16.495098</ele>
        <time>2026-09-03T13:59:12.964Z</time>
      </trkpt>
      <trkpt lat="47.27485" lon="-1.79077">
        <ele>16.587575</ele>
        <time>2026-09-03T13:59:16.431Z</time>
      </trkpt>
      <trkpt lat="47.27493" lon="-1.79099">
        <ele>16.663689</ele>
        <time>2026-09-03T13:59:19.272Z</time>
      </trkpt>
      <trkpt lat="47.27535" lon="-1.79192">
        <ele>16.505157</ele>
        <time>2026-09-03T13:59:31.331Z</time>
      </trkpt>
      <trkpt lat="47.2762" lon="-1.79325">
        <ele>16.070276</ele>
        <time>2026-09-03T13:59:49.608Z</time>
      </trkpt>
      <trkpt lat="47.27688" lon="-1.79459">
        <ele>15.372475</ele>
        <time>2026-09-03T14:00:06.045Z</time>
      </trkpt>
      <trkpt lat="47.27715" lon="-1.79492">
        <ele>15.157103</ele>
        <time>2026-09-03T14:00:11.160Z</time>
      </trkpt>
      <trkpt lat="47.27721" lon="-1.79503">
        <ele>15.095432</ele>
        <time>2026-09-03T14:00:12.634Z</time>
      </trkpt>
      <trkpt lat="47.27725" lon="-1.79524">
        <ele>15.010289</ele>
        <time>2026-09-03T14:00:14.800Z</time>
      </trkpt>
      <trkpt lat="47.2773" lon="-1.79611">
        <ele>14.984608</ele>
        <time>2026-09-03T14:00:23.663Z</time>
      </trkpt>
      <trkpt lat="47.27736" lon="-1.79648">
        <ele>14.973483</ele>
        <time>2026-09-03T14:00:27.517Z</time>
      </trkpt>
      <trkpt lat="47.27742" lon="-1.79662">
        <ele>14.968414</ele>
        <time>2026-09-03T14:00:29.338Z</time>
      </trkpt>
      <trkpt lat="47.27752" lon="-1.7966">
        <ele>14.964296</ele>
        <time>2026-09-03T14:00:30.920Z</time>
      </trkpt>
      <trkpt lat="47.27826" lon="-1.79596">
        <ele>14.945405</ele>
        <time>2026-09-03T14:00:45.993Z</time>
      </trkpt>
      <trkpt lat="47.27831" lon="-1.79595">
        <ele>14.950725</ele>
        <time>2026-09-03T14:00:46.889Z</time>
      </trkpt>
      <trkpt lat="47.27839" lon="-1.79604">
        <ele>14.961307</ele>
        <time>2026-09-03T14:00:48.672Z</time>
      </trkpt>
      <trkpt lat="47.27846" lon="-1.79622">
        <ele>14.975303</ele>
        <time>2026-09-03T14:00:51.015Z</time>
      </trkpt>
      <trkpt lat="47.27872" lon="-1.79692">
        <ele>15.031056</ele>
        <time>2026-09-03T14:01:00.254Z</time>
      </trkpt>
      <trkpt lat="47.2788" lon="-1.79698">
        <ele>15.040121</ele>
        <time>2026-09-03T14:01:01.737Z</time>
      </trkpt>
      <trkpt lat="47.27885" lon="-1.79697">
        <ele>15.044878</ele>
        <time>2026-09-03T14:01:02.547Z</time>
      </trkpt>
      <trkpt lat="47.27982" lon="-1.79591">
        <ele>14.860309</ele>
        <time>2026-09-03T14:01:21.080Z</time>
      </trkpt>
      <trkpt lat="47.2799" lon="-1.79594">
        <ele>14.820415</ele>
        <time>2026-09-03T14:01:22.234Z</time>
      </trkpt>
      <trkpt lat="47.28057" lon="-1.79754">
        <ele>14.174766</ele>
        <time>2026-09-03T14:01:40.831Z</time>
      </trkpt>
      <trkpt lat="47.28058" lon="-1.79756">
        <ele>14.163699</ele>
        <time>2026-09-03T14:01:41.285Z</time>
      </trkpt>
      <trkpt lat="47.28118" lon="-1.79935">
        <ele>13.381994</ele>
        <time>2026-09-03T14:02:13.467Z</time>
      </trkpt>
      <trkpt lat="47.28166" lon="-1.80085">
        <ele>13.813837</ele>
        <time>2026-09-03T14:02:42.256Z</time>
      </trkpt>
      <trkpt lat="47.28205" lon="-1.80212">
        <ele>14.603641</ele>
        <time>2026-09-03T14:03:11.391Z</time>
      </trkpt>
      <trkpt lat="47.28225" lon="-1.80292">
        <ele>14.736592</ele>
        <time>2026-09-03T14:03:29.415Z</time>
      </trkpt>
      <trkpt lat="47.28234" lon="-1.80309">
        <ele>14.753612</ele>
        <time>2026-09-03T14:03:32.276Z</time>
      </trkpt>
      <trkpt lat="47.2826" lon="-1.80388">
        <ele>14.819838</ele>
        <time>2026-09-03T14:03:41.621Z</time>
      </trkpt>
      <trkpt lat="47.28384" lon="-1.80777">
        <ele>12.172348</ele>
        <time>2026-09-03T14:04:21.823Z</time>
      </trkpt>
      <trkpt lat="47.2843" lon="-1.80925">
        <ele>10.973249</ele>
        <time>2026-09-03T14:04:37.418Z</time>
      </trkpt>
      <trkpt lat="47.28577" lon="-1.81412">
        <ele>6.237164</ele>
        <time>2026-09-03T14:05:26.262Z</time>
      </trkpt>
      <trkpt lat="47.28639" lon="-1.8161">
        <ele>5.221564</ele>
        <time>2026-09-03T14:05:48.160Z</time>
      </trkpt>
      <trkpt lat="47.28684" lon="-1.81753">
        <ele>4.601061</ele>
        <time>2026-09-03T14:06:03.872Z</time>
      </trkpt>
      <trkpt lat="47.28668" lon="-1.81774">
        <ele>4.485454</ele>
        <time>2026-09-03T14:06:06.922Z</time>
      </trkpt>
      <trkpt lat="47.28633" lon="-1.81827">
        <ele>4.211301</ele>
        <time>2026-09-03T14:06:14.084Z</time>
      </trkpt>
      <trkpt lat="47.28553" lon="-1.81934">
        <ele>4.225922</ele>
        <time>2026-09-03T14:06:30.742Z</time>
      </trkpt>
      <trkpt lat="47.28561" lon="-1.81943">
        <ele>4.269153</ele>
        <time>2026-09-03T14:06:32.541Z</time>
      </trkpt>
      <trkpt lat="47.28645" lon="-1.81961">
        <ele>4.634248</ele>
        <time>2026-09-03T14:06:48.558Z</time>
      </trkpt>
      <trkpt lat="47.28687" lon="-1.81973">
        <ele>4.802281</ele>
        <time>2026-09-03T14:06:56.884Z</time>
      </trkpt>
      <trkpt lat="47.28693" lon="-1.81978">
        <ele>4.825081</ele>
        <time>2026-09-03T14:06:58.123Z</time>
      </trkpt>
      <trkpt lat="47.28695" lon="-1.81989">
        <ele>4.852123</ele>
        <time>2026-09-03T14:06:59.580Z</time>
      </trkpt>
      <trkpt lat="47.28709" lon="-1.82179">
        <ele>5.299932</ele>
        <time>2026-09-03T14:07:20.892Z</time>
      </trkpt>
      <trkpt lat="47.28739" lon="-1.82349">
        <ele>5.710471</ele>
        <time>2026-09-03T14:07:40.750Z</time>
      </trkpt>
      <trkpt lat="47.28776" lon="-1.82306">
        <ele>5.874354</ele>
        <time>2026-09-03T14:07:48.189Z</time>
      </trkpt>
      <trkpt lat="47.28801" lon="-1.82298">
        <ele>5.963147</ele>
        <time>2026-09-03T14:07:52.305Z</time>
      </trkpt>
      <trkpt lat="47.28835" lon="-1.82473">
        <ele>6.162985</ele>
        <time>2026-09-03T14:08:27.391Z</time>
      </trkpt>
      <trkpt lat="47.2884" lon="-1.82514">
        <ele>6.206966</ele>
        <time>2026-09-03T14:08:34.962Z</time>
      </trkpt>
      <trkpt lat="47.28859" lon="-1.8257">
        <ele>6.19492</ele>
        <time>2026-09-03T14:08:46.050Z</time>
      </trkpt>
      <trkpt lat="47.2888" lon="-1.82656">
        <ele>5.781671</ele>
        <time>2026-09-03T14:09:01.808Z</time>
      </trkpt>
      <trkpt lat="47.28893" lon="-1.82696">
        <ele>5.580412</ele>
        <time>2026-09-03T14:09:09.389Z</time>
      </trkpt>
      <trkpt lat="47.2891" lon="-1.82725">
        <ele>5.403528</ele>
        <time>2026-09-03T14:09:16.021Z</time>
      </trkpt>
      <trkpt lat="47.28958" lon="-1.82787">
        <ele>5.029321</ele>
        <time>2026-09-03T14:09:32.138Z</time>
      </trkpt>
      <trkpt lat="47.28982" lon="-1.82839">
        <ele>4.927</ele>
        <time>2026-09-03T14:09:43.328Z</time>
      </trkpt>
      <trkpt lat="47.28999" lon="-1.82836">
        <ele>4.886373</ele>
        <time>2026-09-03T14:09:45.925Z</time>
      </trkpt>
      <trkpt lat="47.29014" lon="-1.82848">
        <ele>4.845892</ele>
        <time>2026-09-03T14:09:48.540Z</time>
      </trkpt>
      <trkpt lat="47.29029" lon="-1.82883">
        <ele>4.778348</ele>
        <time>2026-09-03T14:09:52.921Z</time>
      </trkpt>
      <trkpt lat="47.29049" lon="-1.82871">
        <ele>4.727005</ele>
        <time>2026-09-03T14:09:56.324Z</time>
      </trkpt>
      <trkpt lat="47.29066" lon="-1.82856">
        <ele>4.680209</ele>
        <time>2026-09-03T14:09:59.436Z</time>
      </trkpt>
      <trkpt lat="47.29117" lon="-1.82787">
        <ele>4.832623</ele>
        <time>2026-09-03T14:10:10.731Z</time>
      </trkpt>
      <trkpt lat="47.29154" lon="-1.82757">
        <ele>5.016751</ele>
        <time>2026-09-03T14:10:18.020Z</time>
      </trkpt>
      <trkpt lat="47.29209" lon="-1.82729">
        <ele>5.264732</ele>
        <time>2026-09-03T14:10:28.316Z</time>
      </trkpt>
      <trkpt lat="47.29225" lon="-1.82725">
        <ele>5.330692</ele>
        <time>2026-09-03T14:10:31.215Z</time>
      </trkpt>
      <trkpt lat="47.2925" lon="-1.82727">
        <ele>5.454473</ele>
        <time>2026-09-03T14:10:36.070Z</time>
      </trkpt>
      <trkpt lat="47.29281" lon="-1.82747">
        <ele>5.65408</ele>
        <time>2026-09-03T14:10:42.578Z</time>
      </trkpt>
      <trkpt lat="47.29353" lon="-1.82782">
        <ele>6.105115</ele>
        <time>2026-09-03T14:10:56.693Z</time>
      </trkpt>
      <trkpt lat="47.29366" lon="-1.82768">
        <ele>6.195317</ele>
        <time>2026-09-03T14:10:59.047Z</time>
      </trkpt>
      <trkpt lat="47.29435" lon="-1.82724">
        <ele>6.697821</ele>
        <time>2026-09-03T14:11:10.008Z</time>
      </trkpt>
      <trkpt lat="47.29549" lon="-1.82629">
        <ele>7.702355</ele>
        <time>2026-09-03T14:11:30.017Z</time>
      </trkpt>
      <trkpt lat="47.29579" lon="-1.8261">
        <ele>8.350109</ele>
        <time>2026-09-03T14:11:36.693Z</time>
      </trkpt>
      <trkpt lat="47.2961" lon="-1.82603">
        <ele>9.49993</ele>
        <time>2026-09-03T14:11:43.976Z</time>
      </trkpt>
      <trkpt lat="47.29645" lon="-1.82589">
        <ele>10.833268</ele>
        <time>2026-09-03T14:11:53.333Z</time>
      </trkpt>
      <trkpt lat="47.29761" lon="-1.8253">
        <ele>15.732754</ele>
        <time>2026-09-03T14:12:30.308Z</time>
      </trkpt>
      <trkpt lat="47.29912" lon="-1.82446">
        <ele>24.267014</ele>
        <time>2026-09-03T14:13:25.270Z</time>
      </trkpt>
      <trkpt lat="47.29957" lon="-1.82412">
        <ele>25.851224</ele>
        <time>2026-09-03T14:13:41.876Z</time>
      </trkpt>
      <trkpt lat="47.29981" lon="-1.82395">
        <ele>26.704128</ele>
        <time>2026-09-03T14:13:49.670Z</time>
      </trkpt>
      <trkpt lat="47.30018" lon="-1.82369">
        <ele>27.991662</ele>
        <time>2026-09-03T14:13:59.726Z</time>
      </trkpt>
      <trkpt lat="47.30023" lon="-1.82414">
        <ele>28.960113</ele>
        <time>2026-09-03T14:14:06.393Z</time>
      </trkpt>
      <trkpt lat="47.30034" lon="-1.82462">
        <ele>29.730112</ele>
        <time>2026-09-03T14:14:12.315Z</time>
      </trkpt>
      <trkpt lat="47.30073" lon="-1.82573">
        <ele>29.525792</ele>
        <time>2026-09-03T14:14:24.248Z</time>
      </trkpt>
      <trkpt lat="47.30103" lon="-1.82639">
        <ele>29.39613</ele>
        <time>2026-09-03T14:14:37.277Z</time>
      </trkpt>
      <trkpt lat="47.30165" lon="-1.82796">
        <ele>29.52036</ele>
        <time>2026-09-03T14:15:10.360Z</time>
      </trkpt>
      <trkpt lat="47.30187" lon="-1.8284">
        <ele>29.601839</ele>
        <time>2026-09-03T14:15:20.387Z</time>
      </trkpt>
      <trkpt lat="47.30222" lon="-1.82898">
        <ele>29.707965</ele>
        <time>2026-09-03T14:15:34.101Z</time>
      </trkpt>
      <trkpt lat="47.30249" lon="-1.82963">
        <ele>29.450414</ele>
        <time>2026-09-03T14:15:47.069Z</time>
      </trkpt>
      <trkpt lat="47.30254" lon="-1.82974">
        <ele>29.405112</ele>
        <time>2026-09-03T14:15:49.313Z</time>
      </trkpt>
      <trkpt lat="47.30261" lon="-1.8297">
        <ele>29.367551</ele>
        <time>2026-09-03T14:15:50.521Z</time>
      </trkpt>
      <trkpt lat="47.30277" lon="-1.83014">
        <ele>29.19965</ele>
        <time>2026-09-03T14:15:58.772Z</time>
      </trkpt>
      <trkpt lat="47.30301" lon="-1.8311">
        <ele>28.853217</ele>
        <time>2026-09-03T14:16:15.397Z</time>
      </trkpt>
      <trkpt lat="47.30327" lon="-1.83189">
        <ele>27.886705</ele>
        <time>2026-09-03T14:16:28.956Z</time>
      </trkpt>
      <trkpt lat="47.30339" lon="-1.83203">
        <ele>27.62284</ele>
        <time>2026-09-03T14:16:32.273Z</time>
      </trkpt>
      <trkpt lat="47.30374" lon="-1.83273">
        <ele>26.58108</ele>
        <time>2026-09-03T14:16:44.956Z</time>
      </trkpt>
      <trkpt lat="47.30385" lon="-1.83279">
        <ele>26.382834</ele>
        <time>2026-09-03T14:16:47.375Z</time>
      </trkpt>
      <trkpt lat="47.30407" lon="-1.83273">
        <ele>25.988739</ele>
        <time>2026-09-03T14:16:52.203Z</time>
      </trkpt>
      <trkpt lat="47.30422" lon="-1.83261">
        <ele>25.678191</ele>
        <time>2026-09-03T14:16:56.030Z</time>
      </trkpt>
      <trkpt lat="47.30431" lon="-1.83275">
        <ele>25.697319</ele>
        <time>2026-09-03T14:16:58.979Z</time>
      </trkpt>
      <trkpt lat="47.3044" lon="-1.83325">
        <ele>25.854922</ele>
        <time>2026-09-03T14:17:07.252Z</time>
      </trkpt>
      <trkpt lat="47.3043" lon="-1.83394">
        <ele>26.070937</ele>
        <time>2026-09-03T14:17:19.834Z</time>
      </trkpt>
      <trkpt lat="47.30431" lon="-1.83407">
        <ele>26.108474</ele>
        <time>2026-09-03T14:17:22.176Z</time>
      </trkpt>
      <trkpt lat="47.30435" lon="-1.83418">
        <ele>26.148733</ele>
        <time>2026-09-03T14:17:24.772Z</time>
      </trkpt>
      <trkpt lat="47.30463" lon="-1.83469">
        <ele>26.347709</ele>
        <time>2026-09-03T14:17:38.563Z</time>
      </trkpt>
      <trkpt lat="47.30532" lon="-1.83589">
        <ele>27.52191</ele>
        <time>2026-09-03T14:18:14.549Z</time>
      </trkpt>
      <trkpt lat="47.3057" lon="-1.83629">
        <ele>28.117656</ele>
        <time>2026-09-03T14:18:23.738Z</time>
      </trkpt>
      <trkpt lat="47.3061" lon="-1.83666">
        <ele>28.732879</ele>
        <time>2026-09-03T14:18:32.270Z</time>
      </trkpt>
      <trkpt lat="47.30679" lon="-1.83738">
        <ele>28.053025</ele>
        <time>2026-09-03T14:18:52.822Z</time>
      </trkpt>
      <trkpt lat="47.30725" lon="-1.83801">
        <ele>27.504898</ele>
        <time>2026-09-03T14:19:07.110Z</time>
      </trkpt>
      <trkpt lat="47.30736" lon="-1.83827">
        <ele>27.32481</ele>
        <time>2026-09-03T14:19:09.859Z</time>
      </trkpt>
      <trkpt lat="47.30742" lon="-1.83846">
        <ele>27.196599</ele>
        <time>2026-09-03T14:19:11.815Z</time>
      </trkpt>
      <trkpt lat="47.30769" lon="-1.83942">
        <ele>26.148726</ele>
        <time>2026-09-03T14:19:21.146Z</time>
      </trkpt>
      <trkpt lat="47.30791" lon="-1.83991">
        <ele>25.555656</ele>
        <time>2026-09-03T14:19:26.389Z</time>
      </trkpt>
      <trkpt lat="47.30905" lon="-1.8415">
        <ele>24.319541</ele>
        <time>2026-09-03T14:20:02.358Z</time>
      </trkpt>
      <trkpt lat="47.30914" lon="-1.84173">
        <ele>24.279638</ele>
        <time>2026-09-03T14:20:06.965Z</time>
      </trkpt>
      <trkpt lat="47.30916" lon="-1.84189">
        <ele>24.255276</ele>
        <time>2026-09-03T14:20:09.855Z</time>
      </trkpt>
      <trkpt lat="47.30928" lon="-1.84213">
        <ele>24.211565</ele>
        <time>2026-09-03T14:20:15.191Z</time>
      </trkpt>
      <trkpt lat="47.30934" lon="-1.84224">
        <ele>24.190058</ele>
        <time>2026-09-03T14:20:17.908Z</time>
      </trkpt>
      <trkpt lat="47.30948" lon="-1.84233">
        <ele>24.157053</ele>
        <time>2026-09-03T14:20:22.180Z</time>
      </trkpt>
      <trkpt lat="47.31028" lon="-1.84368">
        <ele>25.875593</ele>
        <time>2026-09-03T14:20:59.631Z</time>
      </trkpt>
      <trkpt lat="47.31068" lon="-1.84422">
        <ele>26.822923</ele>
        <time>2026-09-03T14:21:15.968Z</time>
      </trkpt>
      <trkpt lat="47.31088" lon="-1.84478">
        <ele>28.43571</ele>
        <time>2026-09-03T14:21:30.648Z</time>
      </trkpt>
      <trkpt lat="47.31088" lon="-1.84522">
        <ele>30.322849</ele>
        <time>2026-09-03T14:21:39.722Z</time>
      </trkpt>
      <trkpt lat="47.31096" lon="-1.84521">
        <ele>30.833201</ele>
        <time>2026-09-03T14:21:43.261Z</time>
      </trkpt>
      <trkpt lat="47.31119" lon="-1.8448">
        <ele>33.092762</ele>
        <time>2026-09-03T14:21:59.837Z</time>
      </trkpt>
      <trkpt lat="47.31136" lon="-1.84458">
        <ele>34.51387</ele>
        <time>2026-09-03T14:22:11.361Z</time>
      </trkpt>
      <trkpt lat="47.31162" lon="-1.84435">
        <ele>36.42409</ele>
        <time>2026-09-03T14:22:27.898Z</time>
      </trkpt>
      <trkpt lat="47.31182" lon="-1.84424">
        <ele>37.794701</ele>
        <time>2026-09-03T14:22:40.948Z</time>
      </trkpt>
      <trkpt lat="47.31197" lon="-1.84413">
        <ele>38.949445</ele>
        <time>2026-09-03T14:22:51.431Z</time>
      </trkpt>
      <trkpt lat="47.31268" lon="-1.84362">
        <ele>45.217219</ele>
        <time>2026-09-03T14:23:40.554Z</time>
      </trkpt>
      <trkpt lat="47.31302" lon="-1.84293">
        <ele>49.88043</ele>
        <time>2026-09-03T14:24:12.428Z</time>
      </trkpt>
      <trkpt lat="47.31322" lon="-1.84273">
        <ele>51.764356</ele>
        <time>2026-09-03T14:24:23.719Z</time>
      </trkpt>
      <trkpt lat="47.31398" lon="-1.84238">
        <ele>54.28628</ele>
        <time>2026-09-03T14:24:54.496Z</time>
      </trkpt>
      <trkpt lat="47.31463" lon="-1.84204">
        <ele>55.732859</ele>
        <time>2026-09-03T14:25:14.168Z</time>
      </trkpt>
      <trkpt lat="47.31474" lon="-1.84198">
        <ele>55.963815</ele>
        <time>2026-09-03T14:25:17.204Z</time>
      </trkpt>
      <trkpt lat="47.3152" lon="-1.84154">
        <ele>56.947446</ele>
        <time>2026-09-03T14:25:32.337Z</time>
      </trkpt>
      <trkpt lat="47.31537" lon="-1.8413">
        <ele>57.251694</ele>
        <time>2026-09-03T14:25:38.737Z</time>
      </trkpt>
      <trkpt lat="47.3156" lon="-1.84085">
        <ele>57.740071</ele>
        <time>2026-09-03T14:25:48.900Z</time>
      </trkpt>
      <trkpt lat="47.31563" lon="-1.84072">
        <ele>57.852828</ele>
        <time>2026-09-03T14:25:51.384Z</time>
      </trkpt>
      <trkpt lat="47.3156" lon="-1.84057">
        <ele>57.995593</ele>
        <time>2026-09-03T14:25:54.582Z</time>
      </trkpt>
      <trkpt lat="47.31551" lon="-1.84037">
        <ele>58.199898</ele>
        <time>2026-09-03T14:25:57.840Z</time>
      </trkpt>
      <trkpt lat="47.31525" lon="-1.83942">
        <ele>59.234274</ele>
        <time>2026-09-03T14:26:14.402Z</time>
      </trkpt>
      <trkpt lat="47.3153" lon="-1.8394">
        <ele>59.392853</ele>
        <time>2026-09-03T14:26:15.793Z</time>
      </trkpt>
      <trkpt lat="47.31576" lon="-1.83922">
        <ele>60.829306</ele>
        <time>2026-09-03T14:26:28.657Z</time>
      </trkpt>
      <trkpt lat="47.31622" lon="-1.83905">
        <ele>62.265758</ele>
        <time>2026-09-03T14:26:42.887Z</time>
      </trkpt>
      <trkpt lat="47.31644" lon="-1.83893">
        <ele>62.997348</ele>
        <time>2026-09-03T14:26:50.282Z</time>
      </trkpt>
      <trkpt lat="47.31657" lon="-1.83883">
        <ele>63.433515</ele>
        <time>2026-09-03T14:26:54.504Z</time>
      </trkpt>
      <trkpt lat="47.3168" lon="-1.83853">
        <ele>64.343177</ele>
        <time>2026-09-03T14:27:02.739Z</time>
      </trkpt>
      <trkpt lat="47.31821" lon="-1.83639">
        <ele>66.204298</ele>
        <time>2026-09-03T14:27:40.592Z</time>
      </trkpt>
      <trkpt lat="47.31869" lon="-1.83578">
        <ele>66.258054</ele>
        <time>2026-09-03T14:27:49.940Z</time>
      </trkpt>
      <trkpt lat="47.31884" lon="-1.83548">
        <ele>66.279694</ele>
        <time>2026-09-03T14:27:53.795Z</time>
      </trkpt>
      <trkpt lat="47.31905" lon="-1.835">
        <ele>66.312138</ele>
        <time>2026-09-03T14:27:59.709Z</time>
      </trkpt>
      <trkpt lat="47.31913" lon="-1.83489">
        <ele>66.321441</ele>
        <time>2026-09-03T14:28:01.485Z</time>
      </trkpt>
      <trkpt lat="47.31924" lon="-1.83474">
        <ele>66.334587</ele>
        <time>2026-09-03T14:28:04.092Z</time>
      </trkpt>
      <trkpt lat="47.31991" lon="-1.83403">
        <ele>67.490536</ele>
        <time>2026-09-03T14:28:20.008Z</time>
      </trkpt>
      <trkpt lat="47.32137" lon="-1.8322">
        <ele>70.157785</ele>
        <time>2026-09-03T14:29:05.085Z</time>
      </trkpt>
      <trkpt lat="47.32197" lon="-1.8313">
        <ele>71.221079</ele>
        <time>2026-09-03T14:29:22.337Z</time>
      </trkpt>
      <trkpt lat="47.3223" lon="-1.83083">
        <ele>70.246784</ele>
        <time>2026-09-03T14:29:28.742Z</time>
      </trkpt>
      <trkpt lat="47.32251" lon="-1.83064">
        <ele>69.584153</ele>
        <time>2026-09-03T14:29:31.874Z</time>
      </trkpt>
      <trkpt lat="47.32294" lon="-1.83046">
        <ele>68.394196</ele>
        <time>2026-09-03T14:29:37.137Z</time>
      </trkpt>
      <trkpt lat="47.3239" lon="-1.83018">
        <ele>65.614641</ele>
        <time>2026-09-03T14:29:48.356Z</time>
      </trkpt>
      <trkpt lat="47.32399" lon="-1.83016">
        <ele>65.311591</ele>
        <time>2026-09-03T14:29:49.428Z</time>
      </trkpt>
      <trkpt lat="47.32398" lon="-1.83069">
        <ele>64.121097</ele>
        <time>2026-09-03T14:29:56.822Z</time>
      </trkpt>
      <trkpt lat="47.32391" lon="-1.83126">
        <ele>62.828706</ele>
        <time>2026-09-03T14:30:05.011Z</time>
      </trkpt>
      <trkpt lat="47.32346" lon="-1.83235">
        <ele>59.983015</ele>
        <time>2026-09-03T14:30:23.223Z</time>
      </trkpt>
      <trkpt lat="47.3229" lon="-1.83349">
        <ele>56.8772</ele>
        <time>2026-09-03T14:30:42.872Z</time>
      </trkpt>
      <trkpt lat="47.32286" lon="-1.8338">
        <ele>56.198193</ele>
        <time>2026-09-03T14:30:47.166Z</time>
      </trkpt>
      <trkpt lat="47.32273" lon="-1.83395">
        <ele>55.661947</ele>
        <time>2026-09-03T14:30:50.580Z</time>
      </trkpt>
      <trkpt lat="47.32262" lon="-1.83412">
        <ele>55.133064</ele>
        <time>2026-09-03T14:30:53.907Z</time>
      </trkpt>
      <trkpt lat="47.32247" lon="-1.8354">
        <ele>52.147886</ele>
        <time>2026-09-03T14:31:11.687Z</time>
      </trkpt>
      <trkpt lat="47.32233" lon="-1.83582">
        <ele>51.047895</ele>
        <time>2026-09-03T14:31:18.160Z</time>
      </trkpt>
      <trkpt lat="47.32219" lon="-1.83601">
        <ele>50.371179</ele>
        <time>2026-09-03T14:31:22.143Z</time>
      </trkpt>
      <trkpt lat="47.322" lon="-1.83614">
        <ele>49.677879</ele>
        <time>2026-09-03T14:31:26.237Z</time>
      </trkpt>
      <trkpt lat="47.32179" lon="-1.83625">
        <ele>48.912118</ele>
        <time>2026-09-03T14:31:30.816Z</time>
      </trkpt>
      <trkpt lat="47.32149" lon="-1.83631">
        <ele>48.205353</ele>
        <time>2026-09-03T14:31:37.070Z</time>
      </trkpt>
      <trkpt lat="47.32131" lon="-1.83642">
        <ele>47.877301</ele>
        <time>2026-09-03T14:31:41.144Z</time>
      </trkpt>
      <trkpt lat="47.32091" lon="-1.8371">
        <ele>46.843885</ele>
        <time>2026-09-03T14:31:54.386Z</time>
      </trkpt>
      <trkpt lat="47.31983" lon="-1.83836">
        <ele>47.50488</ele>
        <time>2026-09-03T14:32:27.926Z</time>
      </trkpt>
      <trkpt lat="47.31966" lon="-1.83866">
        <ele>48.40425</ele>
        <time>2026-09-03T14:32:37.294Z</time>
      </trkpt>
      <trkpt lat="47.31965" lon="-1.83878">
        <ele>48.68494</ele>
        <time>2026-09-03T14:32:40.422Z</time>
      </trkpt>
      <trkpt lat="47.31973" lon="-1.83895">
        <ele>49.165776</ele>
        <time>2026-09-03T14:32:46.092Z</time>
      </trkpt>
      <trkpt lat="47.31983" lon="-1.83906">
        <ele>49.570623</ele>
        <time>2026-09-03T14:32:51.202Z</time>
      </trkpt>
      <trkpt lat="47.31987" lon="-1.83907">
        <ele>49.727982</ele>
        <time>2026-09-03T14:32:53.194Z</time>
      </trkpt>
      <trkpt lat="47.31995" lon="-1.8391">
        <ele>50.021554</ele>
        <time>2026-09-03T14:32:57.087Z</time>
      </trkpt>
      <trkpt lat="47.32005" lon="-1.83918">
        <ele>50.410486</ele>
        <time>2026-09-03T14:33:02.405Z</time>
      </trkpt>
      <trkpt lat="47.32026" lon="-1.8395">
        <ele>51.445365</ele>
        <time>2026-09-03T14:33:17.470Z</time>
      </trkpt>
      <trkpt lat="47.32028" lon="-1.83963">
        <ele>51.789628</ele>
        <time>2026-09-03T14:33:22.105Z</time>
      </trkpt>
      <trkpt lat="47.32025" lon="-1.83989">
        <ele>52.872667</ele>
        <time>2026-09-03T14:33:32.024Z</time>
      </trkpt>
      <trkpt lat="47.31999" lon="-1.84011">
        <ele>54.643901</ele>
        <time>2026-09-03T14:33:48.825Z</time>
      </trkpt>
      <trkpt lat="47.32001" lon="-1.84035">
        <ele>55.616403</ele>
        <time>2026-09-03T14:33:57.644Z</time>
      </trkpt>
      <trkpt lat="47.3201" lon="-1.84062">
        <ele>56.821578</ele>
        <time>2026-09-03T14:34:08.015Z</time>
      </trkpt>
      <trkpt lat="47.32014" lon="-1.8409">
        <ele>57.971388</ele>
        <time>2026-09-03T14:34:17.486Z</time>
      </trkpt>
      <trkpt lat="47.32028" lon="-1.84155">
        <ele>60.767255</ele>
        <time>2026-09-03T14:34:38.619Z</time>
      </trkpt>
      <trkpt lat="47.32105" lon="-1.8432">
        <ele>64.83518</ele>
        <time>2026-09-03T14:35:25.722Z</time>
      </trkpt>
      <trkpt lat="47.32123" lon="-1.84306">
        <ele>65.292886</ele>
        <time>2026-09-03T14:35:30.016Z</time>
      </trkpt>
      <trkpt lat="47.32149" lon="-1.84366">
        <ele>66.392628</ele>
        <time>2026-09-03T14:35:44.986Z</time>
      </trkpt>
      <trkpt lat="47.32178" lon="-1.84472">
        <ele>66.536935</ele>
        <time>2026-09-03T14:36:07.695Z</time>
      </trkpt>
      <trkpt lat="47.32202" lon="-1.8455">
        <ele>66.597299</ele>
        <time>2026-09-03T14:36:22.800Z</time>
      </trkpt>
      <trkpt lat="47.32215" lon="-1.84583">
        <ele>66.623881</ele>
        <time>2026-09-03T14:36:29.071Z</time>
      </trkpt>
      <trkpt lat="47.32224" lon="-1.84624">
        <ele>66.287056</ele>
        <time>2026-09-03T14:36:35.843Z</time>
      </trkpt>
      <trkpt lat="47.32224" lon="-1.84629">
        <ele>66.130947</ele>
        <time>2026-09-03T14:36:36.573Z</time>
      </trkpt>
      <trkpt lat="47.32225" lon="-1.84653">
        <ele>65.360297</ele>
        <time>2026-09-03T14:36:40.127Z</time>
      </trkpt>
      <trkpt lat="47.32224" lon="-1.84685">
        <ele>64.363589</ele>
        <time>2026-09-03T14:36:44.576Z</time>
      </trkpt>
      <trkpt lat="47.32255" lon="-1.8468">
        <ele>62.894597</ele>
        <time>2026-09-03T14:36:48.203Z</time>
      </trkpt>
      <trkpt lat="47.32263" lon="-1.84689">
        <ele>62.39548</ele>
        <time>2026-09-03T14:36:50.264Z</time>
      </trkpt>
      <trkpt lat="47.32278" lon="-1.84697">
        <ele>61.676259</ele>
        <time>2026-09-03T14:36:53.210Z</time>
      </trkpt>
      <trkpt lat="47.32309" lon="-1.84739">
        <ele>59.70183</ele>
        <time>2026-09-03T14:37:01.101Z</time>
      </trkpt>
      <trkpt lat="47.32319" lon="-1.84747">
        <ele>59.162591</ele>
        <time>2026-09-03T14:37:03.217Z</time>
      </trkpt>
      <trkpt lat="47.32343" lon="-1.84752">
        <ele>58.020118</ele>
        <time>2026-09-03T14:37:07.537Z</time>
      </trkpt>
      <trkpt lat="47.32356" lon="-1.8475">
        <ele>57.319585</ele>
        <time>2026-09-03T14:37:09.861Z</time>
      </trkpt>
      <trkpt lat="47.32394" lon="-1.84759">
        <ele>55.256255</ele>
        <time>2026-09-03T14:37:16.700Z</time>
      </trkpt>
      <trkpt lat="47.32438" lon="-1.84798">
        <ele>52.534929</ele>
        <time>2026-09-03T14:37:26.022Z</time>
      </trkpt>
      <trkpt lat="47.32463" lon="-1.84819">
        <ele>50.989237</ele>
        <time>2026-09-03T14:37:31.598Z</time>
      </trkpt>
      <trkpt lat="47.32468" lon="-1.84832">
        <ele>50.448153</ele>
        <time>2026-09-03T14:37:33.642Z</time>
      </trkpt>
      <trkpt lat="47.3245" lon="-1.84871">
        <ele>48.73927</ele>
        <time>2026-09-03T14:37:40.488Z</time>
      </trkpt>
      <trkpt lat="47.32432" lon="-1.84921">
        <ele>49.535664</ele>
        <time>2026-09-03T14:37:50.463Z</time>
      </trkpt>
      <trkpt lat="47.32431" lon="-1.84929">
        <ele>49.66713</ele>
        <time>2026-09-03T14:37:52.063Z</time>
      </trkpt>
      <trkpt lat="47.32433" lon="-1.8495">
        <ele>50.015272</ele>
        <time>2026-09-03T14:37:56.690Z</time>
      </trkpt>
      <trkpt lat="47.32457" lon="-1.85015">
        <ele>51.215193</ele>
        <time>2026-09-03T14:38:15.611Z</time>
      </trkpt>
      <trkpt lat="47.32461" lon="-1.85038">
        <ele>51.604636</ele>
        <time>2026-09-03T14:38:22.211Z</time>
      </trkpt>
      <trkpt lat="47.32441" lon="-1.85063">
        <ele>52.235447</ele>
        <time>2026-09-03T14:38:33.076Z</time>
      </trkpt>
      <trkpt lat="47.32436" lon="-1.85075">
        <ele>52.468294</ele>
        <time>2026-09-03T14:38:37.197Z</time>
      </trkpt>
      <trkpt lat="47.32431" lon="-1.85086">
        <ele>52.684167</ele>
        <time>2026-09-03T14:38:41.037Z</time>
      </trkpt>
      <trkpt lat="47.32428" lon="-1.85115">
        <ele>53.284582</ele>
        <time>2026-09-03T14:38:49.281Z</time>
      </trkpt>
      <trkpt lat="47.32409" lon="-1.85291">
        <ele>58.243597</ele>
        <time>2026-09-03T14:39:37.847Z</time>
      </trkpt>
      <trkpt lat="47.32409" lon="-1.8531">
        <ele>58.756618</ele>
        <time>2026-09-03T14:39:42.920Z</time>
      </trkpt>
      <trkpt lat="47.32411" lon="-1.8533">
        <ele>59.332177</ele>
        <time>2026-09-03T14:39:48.591Z</time>
      </trkpt>
      <trkpt lat="47.32418" lon="-1.85359">
        <ele>60.190484</ele>
        <time>2026-09-03T14:39:57.067Z</time>
      </trkpt>
      <trkpt lat="47.32429" lon="-1.85389">
        <ele>60.73238</ele>
        <time>2026-09-03T14:40:06.212Z</time>
      </trkpt>
      <trkpt lat="47.32438" lon="-1.85402">
        <ele>61.000079</ele>
        <time>2026-09-03T14:40:11.203Z</time>
      </trkpt>
      <trkpt lat="47.3247" lon="-1.85434">
        <ele>61.825787</ele>
        <time>2026-09-03T14:40:25.773Z</time>
      </trkpt>
      <trkpt lat="47.32514" lon="-1.85475">
        <ele>62.932456</ele>
        <time>2026-09-03T14:40:43.045Z</time>
      </trkpt>
      <trkpt lat="47.32535" lon="-1.85502">
        <ele>63.524078</ele>
        <time>2026-09-03T14:40:51.130Z</time>
      </trkpt>
      <trkpt lat="47.32614" lon="-1.8562">
        <ele>64.302612</ele>
        <time>2026-09-03T14:41:18.682Z</time>
      </trkpt>
      <trkpt lat="47.32628" lon="-1.85634">
        <ele>64.337921</ele>
        <time>2026-09-03T14:41:22.877Z</time>
      </trkpt>
      <trkpt lat="47.32644" lon="-1.85632">
        <ele>64.368499</ele>
        <time>2026-09-03T14:41:26.636Z</time>
      </trkpt>
      <trkpt lat="47.32685" lon="-1.85613">
        <ele>64.454486</ele>
        <time>2026-09-03T14:41:38.017Z</time>
      </trkpt>
      <trkpt lat="47.32698" lon="-1.85616">
        <ele>64.481792</ele>
        <time>2026-09-03T14:41:41.967Z</time>
      </trkpt>
      <trkpt lat="47.32706" lon="-1.85601">
        <ele>64.590114</ele>
        <time>2026-09-03T14:41:44.363Z</time>
      </trkpt>
      <trkpt lat="47.32715" lon="-1.85599">
        <ele>64.736954</ele>
        <time>2026-09-03T14:41:47.109Z</time>
      </trkpt>
      <trkpt lat="47.32754" lon="-1.8557">
        <ele>65.452339</ele>
        <time>2026-09-03T14:42:01.322Z</time>
      </trkpt>
      <trkpt lat="47.32786" lon="-1.85542">
        <ele>66.053736</ele>
        <time>2026-09-03T14:42:13.828Z</time>
      </trkpt>
      <trkpt lat="47.32865" lon="-1.85465">
        <ele>67.457717</ele>
        <time>2026-09-03T14:42:43.932Z</time>
      </trkpt>
      <trkpt lat="47.32872" lon="-1.85469">
        <ele>67.474498</ele>
        <time>2026-09-03T14:42:45.316Z</time>
      </trkpt>
      <trkpt lat="47.32878" lon="-1.85509">
        <ele>67.531408</ele>
        <time>2026-09-03T14:42:52.782Z</time>
      </trkpt>
      <trkpt lat="47.32871" lon="-1.85574">
        <ele>67.626021</ele>
        <time>2026-09-03T14:43:04.458Z</time>
      </trkpt>
      <trkpt lat="47.32871" lon="-1.85604">
        <ele>67.667953</ele>
        <time>2026-09-03T14:43:09.430Z</time>
      </trkpt>
      <trkpt lat="47.32876" lon="-1.85656">
        <ele>67.743028</ele>
        <time>2026-09-03T14:43:18.091Z</time>
      </trkpt>
      <trkpt lat="47.32891" lon="-1.85727">
        <ele>67.770226</ele>
        <time>2026-09-03T14:43:30.485Z</time>
      </trkpt>
      <trkpt lat="47.32923" lon="-1.85848">
        <ele>67.522458</ele>
        <time>2026-09-03T14:43:52.752Z</time>
      </trkpt>
      <trkpt lat="47.3293" lon="-1.85889">
        <ele>67.443654</ele>
        <time>2026-09-03T14:43:59.787Z</time>
      </trkpt>
      <trkpt lat="47.32929" lon="-1.85899">
        <ele>67.424715</ele>
        <time>2026-09-03T14:44:01.472Z</time>
      </trkpt>
      <trkpt lat="47.32925" lon="-1.85903">
        <ele>67.409982</ele>
        <time>2026-09-03T14:44:02.760Z</time>
      </trkpt>
      <trkpt lat="47.32905" lon="-1.85907">
        <ele>67.354546</ele>
        <time>2026-09-03T14:44:07.661Z</time>
      </trkpt>
      <trkpt lat="47.32941" lon="-1.86172">
        <ele>66.192141</ele>
        <time>2026-09-03T14:44:51.555Z</time>
      </trkpt>
      <trkpt lat="47.32941" lon="-1.86182">
        <ele>66.144489</ele>
        <time>2026-09-03T14:44:53.240Z</time>
      </trkpt>
      <trkpt lat="47.32935" lon="-1.86191">
        <ele>66.102716</ele>
        <time>2026-09-03T14:44:55.073Z</time>
      </trkpt>
      <trkpt lat="47.32871" lon="-1.86214">
        <ele>65.858244</ele>
        <time>2026-09-03T14:45:10.904Z</time>
      </trkpt>
      <trkpt lat="47.32865" lon="-1.86217">
        <ele>65.837167</ele>
        <time>2026-09-03T14:45:12.275Z</time>
      </trkpt>
      <trkpt lat="47.32863" lon="-1.86225">
        <ele>65.815258</ele>
        <time>2026-09-03T14:45:13.703Z</time>
      </trkpt>
      <trkpt lat="47.32885" lon="-1.86344">
        <ele>65.507733</ele>
        <time>2026-09-03T14:45:34.113Z</time>
      </trkpt>
      <trkpt lat="47.32929" lon="-1.86541">
        <ele>66.674323</ele>
        <time>2026-09-03T14:46:13.177Z</time>
      </trkpt>
      <trkpt lat="47.32984" lon="-1.86528">
        <ele>67.236016</ele>
        <time>2026-09-03T14:46:30.504Z</time>
      </trkpt>
      <trkpt lat="47.3303" lon="-1.86514">
        <ele>68.444387</ele>
        <time>2026-09-03T14:46:46.140Z</time>
      </trkpt>
      <trkpt lat="47.33038" lon="-1.86514">
        <ele>68.656564</ele>
        <time>2026-09-03T14:46:49.028Z</time>
      </trkpt>
      <trkpt lat="47.33089" lon="-1.86536">
        <ele>70.050939</ele>
        <time>2026-09-03T14:47:08.344Z</time>
      </trkpt>
      <trkpt lat="47.331" lon="-1.8654">
        <ele>70.344324</ele>
        <time>2026-09-03T14:47:11.928Z</time>
      </trkpt>
      <trkpt lat="47.33125" lon="-1.86542">
        <ele>71.020541</ele>
        <time>2026-09-03T14:47:20.074Z</time>
      </trkpt>
      <trkpt lat="47.3313" lon="-1.8654">
        <ele>71.152001</ele>
        <time>2026-09-03T14:47:21.667Z</time>
      </trkpt>
      <trkpt lat="47.33191" lon="-1.86521">
        <ele>72.722281</ele>
        <time>2026-09-03T14:47:41.030Z</time>
      </trkpt>
      <trkpt lat="47.33205" lon="-1.8651">
        <ele>73.132055</ele>
        <time>2026-09-03T14:47:45.329Z</time>
      </trkpt>
      <trkpt lat="47.33282" lon="-1.86427">
        <ele>75.475095</ele>
        <time>2026-09-03T14:48:08.818Z</time>
      </trkpt>
      <trkpt lat="47.33291" lon="-1.86406">
        <ele>75.891349</ele>
        <time>2026-09-03T14:48:12.757Z</time>
      </trkpt>
      <trkpt lat="47.33297" lon="-1.86388">
        <ele>76.224305</ele>
        <time>2026-09-03T14:48:15.868Z</time>
      </trkpt>
      <trkpt lat="47.33323" lon="-1.86299">
        <ele>76.995414</ele>
        <time>2026-09-03T14:48:31.072Z</time>
      </trkpt>
      <trkpt lat="47.33335" lon="-1.86259">
        <ele>77.30441</ele>
        <time>2026-09-03T14:48:37.737Z</time>
      </trkpt>
      <trkpt lat="47.33357" lon="-1.86285">
        <ele>77.59676</ele>
        <time>2026-09-03T14:48:43.707Z</time>
      </trkpt>
      <trkpt lat="47.3337" lon="-1.86295">
        <ele>77.744083</ele>
        <time>2026-09-03T14:48:46.427Z</time>
      </trkpt>
      <trkpt lat="47.33386" lon="-1.86302">
        <ele>77.924629</ele>
        <time>2026-09-03T14:48:49.471Z</time>
      </trkpt>
      <trkpt lat="47.33396" lon="-1.86307">
        <ele>78.030643</ele>
        <time>2026-09-03T14:48:51.092Z</time>
      </trkpt>
      <trkpt lat="47.33444" lon="-1.86318">
        <ele>77.450118</ele>
        <time>2026-09-03T14:48:58.170Z</time>
      </trkpt>
      <trkpt lat="47.33438" lon="-1.86433">
        <ele>75.247532</ele>
        <time>2026-09-03T14:49:14.754Z</time>
      </trkpt>
      <trkpt lat="47.3344" lon="-1.86529">
        <ele>73.41698</ele>
        <time>2026-09-03T14:49:27.484Z</time>
      </trkpt>
      <trkpt lat="47.33439" lon="-1.86554">
        <ele>73.031344</ele>
        <time>2026-09-03T14:49:30.794Z</time>
      </trkpt>
      <trkpt lat="47.33429" lon="-1.86654">
        <ele>71.761873</ele>
        <time>2026-09-03T14:49:44.924Z</time>
      </trkpt>
      <trkpt lat="47.33429" lon="-1.86696">
        <ele>71.239866</ele>
        <time>2026-09-03T14:49:51.187Z</time>
      </trkpt>
      <trkpt lat="47.33431" lon="-1.86717">
        <ele>70.983477</ele>
        <time>2026-09-03T14:49:54.367Z</time>
      </trkpt>
      <trkpt lat="47.33436" lon="-1.86738">
        <ele>70.702605</ele>
        <time>2026-09-03T14:49:57.988Z</time>
      </trkpt>
      <trkpt lat="47.33454" lon="-1.86779">
        <ele>70.090671</ele>
        <time>2026-09-03T14:50:06.310Z</time>
      </trkpt>
      <trkpt lat="47.33462" lon="-1.86805">
        <ele>70.034318</ele>
        <time>2026-09-03T14:50:11.835Z</time>
      </trkpt>
      <trkpt lat="47.3349" lon="-1.86927">
        <ele>71.626059</ele>
        <time>2026-09-03T14:50:39.988Z</time>
      </trkpt>
      <trkpt lat="47.33522" lon="-1.87037">
        <ele>73.117946</ele>
        <time>2026-09-03T14:51:07.349Z</time>
      </trkpt>
      <trkpt lat="47.33543" lon="-1.8711">
        <ele>74.112726</ele>
        <time>2026-09-03T14:51:25.751Z</time>
      </trkpt>
      <trkpt lat="47.33598" lon="-1.87096">
        <ele>75.14479</ele>
        <time>2026-09-03T14:51:37.520Z</time>
      </trkpt>
      <trkpt lat="47.33619" lon="-1.87086">
        <ele>75.560064</ele>
        <time>2026-09-03T14:51:41.932Z</time>
      </trkpt>
      <trkpt lat="47.33649" lon="-1.87064">
        <ele>76.183145</ele>
        <time>2026-09-03T14:51:48.167Z</time>
      </trkpt>
      <trkpt lat="47.33752" lon="-1.86975">
        <ele>77.467466</ele>
        <time>2026-09-03T14:52:09.518Z</time>
      </trkpt>
      <trkpt lat="47.33815" lon="-1.86922">
        <ele>78.165469</ele>
        <time>2026-09-03T14:52:21.691Z</time>
      </trkpt>
      <trkpt lat="47.33834" lon="-1.86913">
        <ele>78.104732</ele>
        <time>2026-09-03T14:52:24.620Z</time>
      </trkpt>
      <trkpt lat="47.33868" lon="-1.86907">
        <ele>77.8404</ele>
        <time>2026-09-03T14:52:29.242Z</time>
      </trkpt>
      <trkpt lat="47.33864" lon="-1.86895">
        <ele>77.764529</ele>
        <time>2026-09-03T14:52:30.715Z</time>
      </trkpt>
      <trkpt lat="47.33834" lon="-1.86847">
        <ele>77.426818</ele>
        <time>2026-09-03T14:52:37.011Z</time>
      </trkpt>
      <trkpt lat="47.3382" lon="-1.86792">
        <ele>77.115028</ele>
        <time>2026-09-03T14:52:42.414Z</time>
      </trkpt>
      <trkpt lat="47.33809" lon="-1.86696">
        <ele>76.559397</ele>
        <time>2026-09-03T14:52:51.030Z</time>
      </trkpt>
      <trkpt lat="47.33804" lon="-1.8667">
        <ele>76.386634</ele>
        <time>2026-09-03T14:52:53.518Z</time>
      </trkpt>
      <trkpt lat="47.33797" lon="-1.8665">
        <ele>76.250407</ele>
        <time>2026-09-03T14:52:55.501Z</time>
      </trkpt>
      <trkpt lat="47.33802" lon="-1.86641">
        <ele>76.178816</ele>
        <time>2026-09-03T14:52:57.260Z</time>
      </trkpt>
      <trkpt lat="47.33814" lon="-1.86597">
        <ele>75.875985</ele>
        <time>2026-09-03T14:53:04.898Z</time>
      </trkpt>
      <trkpt lat="47.33862" lon="-1.8647">
        <ele>75.244061</ele>
        <time>2026-09-03T14:53:29.188Z</time>
      </trkpt>
      <trkpt lat="47.33872" lon="-1.8643">
        <ele>75.37951</ele>
        <time>2026-09-03T14:53:36.665Z</time>
      </trkpt>
      <trkpt lat="47.33886" lon="-1.86372">
        <ele>75.577562</ele>
        <time>2026-09-03T14:53:47.611Z</time>
      </trkpt>
      <trkpt lat="47.33912" lon="-1.86328">
        <ele>75.766602</ele>
        <time>2026-09-03T14:53:58.319Z</time>
      </trkpt>
      <trkpt lat="47.33968" lon="-1.86262">
        <ele>76.437938</ele>
        <time>2026-09-03T14:54:18.997Z</time>
      </trkpt>
      <trkpt lat="47.33974" lon="-1.86253">
        <ele>76.601637</ele>
        <time>2026-09-03T14:54:21.606Z</time>
      </trkpt>
      <trkpt lat="47.33974" lon="-1.86244">
        <ele>76.731524</ele>
        <time>2026-09-03T14:54:23.704Z</time>
      </trkpt>
      <trkpt lat="47.33932" lon="-1.8613">
        <ele>78.459058</ele>
        <time>2026-09-03T14:54:53.341Z</time>
      </trkpt>
      <trkpt lat="47.33862" lon="-1.8594">
        <ele>80.499027</ele>
        <time>2026-09-03T14:55:42.254Z</time>
      </trkpt>
      <trkpt lat="47.34144" lon="-1.85727">
        <ele>81.382984</ele>
        <time>2026-09-03T14:56:31.140Z</time>
      </trkpt>
      <trkpt lat="47.3415" lon="-1.85715">
        <ele>81.437932</ele>
        <time>2026-09-03T14:56:32.992Z</time>
      </trkpt>
      <trkpt lat="47.34154" lon="-1.857">
        <ele>81.495656</ele>
        <time>2026-09-03T14:56:34.979Z</time>
      </trkpt>
      <trkpt lat="47.34216" lon="-1.8538">
        <ele>82.411261</ele>
        <time>2026-09-03T14:57:17.976Z</time>
      </trkpt>
      <trkpt lat="47.34058" lon="-1.85311">
        <ele>82.406628</ele>
        <time>2026-09-03T14:57:41.731Z</time>
      </trkpt>
      <trkpt lat="47.33951" lon="-1.85012">
        <ele>83.175832</ele>
        <time>2026-09-03T14:58:43.642Z</time>
      </trkpt>
      <trkpt lat="47.33929" lon="-1.84954">
        <ele>83.540845</ele>
        <time>2026-09-03T14:58:56.847Z</time>
      </trkpt>
      <trkpt lat="47.33899" lon="-1.84874">
        <ele>84.335523</ele>
        <time>2026-09-03T14:59:15.647Z</time>
      </trkpt>
      <trkpt lat="47.33822" lon="-1.84747">
        <ele>85.726573</ele>
        <time>2026-09-03T14:59:51.054Z</time>
      </trkpt>
      <trkpt lat="47.33838" lon="-1.8473">
        <ele>85.816793</ele>
        <time>2026-09-03T14:59:56.851Z</time>
      </trkpt>
      <trkpt lat="47.33893" lon="-1.84687">
        <ele>86.102292</ele>
        <time>2026-09-03T15:00:14.618Z</time>
      </trkpt>
      <trkpt lat="47.33924" lon="-1.8465">
        <ele>86.285508</ele>
        <time>2026-09-03T15:00:25.331Z</time>
      </trkpt>
      <trkpt lat="47.33941" lon="-1.84612">
        <ele>86.428036</ele>
        <time>2026-09-03T15:00:33.098Z</time>
      </trkpt>
      <trkpt lat="47.33959" lon="-1.84541">
        <ele>86.051732</ele>
        <time>2026-09-03T15:00:45.332Z</time>
      </trkpt>
      <trkpt lat="47.33961" lon="-1.84521">
        <ele>85.882531</ele>
        <time>2026-09-03T15:00:48.466Z</time>
      </trkpt>
      <trkpt lat="47.3396" lon="-1.84499">
        <ele>85.688039</ele>
        <time>2026-09-03T15:00:52.022Z</time>
      </trkpt>
      <trkpt lat="47.33958" lon="-1.84482">
        <ele>85.546189</ele>
        <time>2026-09-03T15:00:54.594Z</time>
      </trkpt>
      <trkpt lat="47.33941" lon="-1.84429">
        <ele>85.045843</ele>
        <time>2026-09-03T15:01:03.583Z</time>
      </trkpt>
      <trkpt lat="47.33921" lon="-1.84392">
        <ele>84.646499</ele>
        <time>2026-09-03T15:01:10.672Z</time>
      </trkpt>
      <trkpt lat="47.33849" lon="-1.84258">
        <ele>83.630915</ele>
        <time>2026-09-03T15:01:37.024Z</time>
      </trkpt>
      <trkpt lat="47.33827" lon="-1.8421">
        <ele>83.34749</ele>
        <time>2026-09-03T15:01:46.364Z</time>
      </trkpt>
      <trkpt lat="47.33825" lon="-1.84203">
        <ele>83.306835</ele>
        <time>2026-09-03T15:01:47.738Z</time>
      </trkpt>
      <trkpt lat="47.33826" lon="-1.84196">
        <ele>83.274073</ele>
        <time>2026-09-03T15:01:48.844Z</time>
      </trkpt>
      <trkpt lat="47.33829" lon="-1.84191">
        <ele>83.242269</ele>
        <time>2026-09-03T15:01:49.938Z</time>
      </trkpt>
      <trkpt lat="47.33846" lon="-1.84183">
        <ele>83.115639</ele>
        <time>2026-09-03T15:01:54.301Z</time>
      </trkpt>
      <trkpt lat="47.33873" lon="-1.84163">
        <ele>82.972573</ele>
        <time>2026-09-03T15:02:02.345Z</time>
      </trkpt>
      <trkpt lat="47.33922" lon="-1.84112">
        <ele>83.417896</ele>
        <time>2026-09-03T15:02:18.915Z</time>
      </trkpt>
      <trkpt lat="47.34072" lon="-1.8391">
        <ele>85.036978</ele>
        <time>2026-09-03T15:03:17.533Z</time>
      </trkpt>
      <trkpt lat="47.34086" lon="-1.83898">
        <ele>85.174779</ele>
        <time>2026-09-03T15:03:22.139Z</time>
      </trkpt>
      <trkpt lat="47.34105" lon="-1.83887">
        <ele>85.356198</ele>
        <time>2026-09-03T15:03:28.186Z</time>
      </trkpt>
      <trkpt lat="47.34186" lon="-1.83852">
        <ele>85.905909</ele>
        <time>2026-09-03T15:03:51.756Z</time>
      </trkpt>
      <trkpt lat="47.34076" lon="-1.83079">
        <ele>86.897868</ele>
        <time>2026-09-03T15:05:08.922Z</time>
      </trkpt>
      <trkpt lat="47.34068" lon="-1.83033">
        <ele>86.68566</ele>
        <time>2026-09-03T15:05:13.811Z</time>
      </trkpt>
      <trkpt lat="47.33824" lon="-1.8291">
        <ele>84.502122</ele>
        <time>2026-09-03T15:05:50.017Z</time>
      </trkpt>
      <trkpt lat="47.33588" lon="-1.82791">
        <ele>82.41644</ele>
        <time>2026-09-03T15:06:24.986Z</time>
      </trkpt>
      <trkpt lat="47.33658" lon="-1.82511">
        <ele>82.252975</ele>
        <time>2026-09-03T15:06:55.414Z</time>
      </trkpt>
      <trkpt lat="47.33468" lon="-1.8242">
        <ele>80.521801</ele>
        <time>2026-09-03T15:07:42.851Z</time>
      </trkpt>
      <trkpt lat="47.33461" lon="-1.82411">
        <ele>80.373947</ele>
        <time>2026-09-03T15:07:44.873Z</time>
      </trkpt>
      <trkpt lat="47.33456" lon="-1.82416">
        <ele>80.27544</ele>
        <time>2026-09-03T15:07:45.661Z</time>
      </trkpt>
      <trkpt lat="47.3344" lon="-1.8242">
        <ele>80.006356</ele>
        <time>2026-09-03T15:07:47.831Z</time>
      </trkpt>
      <trkpt lat="47.33373" lon="-1.82419">
        <ele>78.918469</ele>
        <time>2026-09-03T15:07:56.352Z</time>
      </trkpt>
      <trkpt lat="47.33282" lon="-1.82441">
        <ele>76.737582</ele>
        <time>2026-09-03T15:08:07.878Z</time>
      </trkpt>
      <trkpt lat="47.33227" lon="-1.82369">
        <ele>74.923482</ele>
        <time>2026-09-03T15:08:23.333Z</time>
      </trkpt>
      <trkpt lat="47.33219" lon="-1.82337">
        <ele>74.346336</ele>
        <time>2026-09-03T15:08:28.273Z</time>
      </trkpt>
      <trkpt lat="47.33181" lon="-1.82261">
        <ele>73.880288</ele>
        <time>2026-09-03T15:08:42.151Z</time>
      </trkpt>
      <trkpt lat="47.33134" lon="-1.82189">
        <ele>73.474822</ele>
        <time>2026-09-03T15:08:58.453Z</time>
      </trkpt>
      <trkpt lat="47.33085" lon="-1.8214">
        <ele>73.318268</ele>
        <time>2026-09-03T15:09:15.669Z</time>
      </trkpt>
      <trkpt lat="47.33072" lon="-1.82118">
        <ele>73.761657</ele>
        <time>2026-09-03T15:09:21.965Z</time>
      </trkpt>
      <trkpt lat="47.33068" lon="-1.821">
        <ele>74.059149</ele>
        <time>2026-09-03T15:09:26.310Z</time>
      </trkpt>
      <trkpt lat="47.3303" lon="-1.82022">
        <ele>75.549925</ele>
        <time>2026-09-03T15:09:49.420Z</time>
      </trkpt>
      <trkpt lat="47.33024" lon="-1.82002">
        <ele>75.889967</ele>
        <time>2026-09-03T15:09:54.668Z</time>
      </trkpt>
      <trkpt lat="47.33019" lon="-1.81972">
        <ele>76.366713</ele>
        <time>2026-09-03T15:10:01.955Z</time>
      </trkpt>
      <trkpt lat="47.33013" lon="-1.81903">
        <ele>77.410733</ele>
        <time>2026-09-03T15:10:18.282Z</time>
      </trkpt>
      <trkpt lat="47.3301" lon="-1.81813">
        <ele>78.383555</ele>
        <time>2026-09-03T15:10:38.038Z</time>
      </trkpt>
      <trkpt lat="47.32984" lon="-1.81556">
        <ele>80.815533</ele>
        <time>2026-09-03T15:11:30.881Z</time>
      </trkpt>
      <trkpt lat="47.32982" lon="-1.81518">
        <ele>81.062358</ele>
        <time>2026-09-03T15:11:38.152Z</time>
      </trkpt>
      <trkpt lat="47.33" lon="-1.81508">
        <ele>81.249904</ele>
        <time>2026-09-03T15:11:41.768Z</time>
      </trkpt>
      <trkpt lat="47.33002" lon="-1.81359">
        <ele>82.14099</ele>
        <time>2026-09-03T15:12:10.310Z</time>
      </trkpt>
      <trkpt lat="47.32999" lon="-1.81329">
        <ele>82.276275</ele>
        <time>2026-09-03T15:12:16.115Z</time>
      </trkpt>
      <trkpt lat="47.32936" lon="-1.81124">
        <ele>83.090195</ele>
        <time>2026-09-03T15:12:58.961Z</time>
      </trkpt>
      <trkpt lat="47.32909" lon="-1.81025">
        <ele>82.944728</ele>
        <time>2026-09-03T15:13:17.234Z</time>
      </trkpt>
      <trkpt lat="47.32889" lon="-1.80933">
        <ele>82.812957</ele>
        <time>2026-09-03T15:13:32.991Z</time>
      </trkpt>
      <trkpt lat="47.32884" lon="-1.80937">
        <ele>82.802023</ele>
        <time>2026-09-03T15:13:34.259Z</time>
      </trkpt>
      <trkpt lat="47.32808" lon="-1.80934">
        <ele>82.196522</ele>
        <time>2026-09-03T15:13:44.894Z</time>
      </trkpt>
      <trkpt lat="47.32714" lon="-1.80958">
        <ele>81.315857</ele>
        <time>2026-09-03T15:13:58.145Z</time>
      </trkpt>
      <trkpt lat="47.32693" lon="-1.80963">
        <ele>81.128472</ele>
        <time>2026-09-03T15:14:01.226Z</time>
      </trkpt>
      <trkpt lat="47.32697" lon="-1.80986">
        <ele>81.202134</ele>
        <time>2026-09-03T15:14:03.608Z</time>
      </trkpt>
      <trkpt lat="47.32688" lon="-1.8099">
        <ele>81.246709</ele>
        <time>2026-09-03T15:14:05.993Z</time>
      </trkpt>
      <trkpt lat="47.32677" lon="-1.80987">
        <ele>81.298486</ele>
        <time>2026-09-03T15:14:08.802Z</time>
      </trkpt>
      <trkpt lat="47.32648" lon="-1.81">
        <ele>81.435908</ele>
        <time>2026-09-03T15:14:16.517Z</time>
      </trkpt>
      <trkpt lat="47.32633" lon="-1.81002">
        <ele>81.505422</ele>
        <time>2026-09-03T15:14:20.554Z</time>
      </trkpt>
      <trkpt lat="47.32534" lon="-1.80991">
        <ele>81.977505</ele>
        <time>2026-09-03T15:14:49.712Z</time>
      </trkpt>
      <trkpt lat="47.32487" lon="-1.80992">
        <ele>82.3977</ele>
        <time>2026-09-03T15:15:03.498Z</time>
      </trkpt>
      <trkpt lat="47.32157" lon="-1.8098">
        <ele>85.130686</ele>
        <time>2026-09-03T15:16:37.129Z</time>
      </trkpt>
      <trkpt lat="47.32146" lon="-1.8097">
        <ele>85.216923</ele>
        <time>2026-09-03T15:16:40.669Z</time>
      </trkpt>
      <trkpt lat="47.32107" lon="-1.8089">
        <ele>85.652983</ele>
        <time>2026-09-03T15:16:58.810Z</time>
      </trkpt>
      <trkpt lat="47.32105" lon="-1.80879">
        <ele>85.702256</ele>
        <time>2026-09-03T15:17:00.885Z</time>
      </trkpt>
      <trkpt lat="47.32096" lon="-1.80851">
        <ele>85.842751</ele>
        <time>2026-09-03T15:17:06.842Z</time>
      </trkpt>
      <trkpt lat="47.32034" lon="-1.80694">
        <ele>86.453324</ele>
        <time>2026-09-03T15:17:41.295Z</time>
      </trkpt>
      <trkpt lat="47.32042" lon="-1.80685">
        <ele>86.491456</ele>
        <time>2026-09-03T15:17:42.886Z</time>
      </trkpt>
      <trkpt lat="47.32046" lon="-1.80655">
        <ele>86.571079</ele>
        <time>2026-09-03T15:17:48.564Z</time>
      </trkpt>
      <trkpt lat="47.32074" lon="-1.8051">
        <ele>86.890486</ele>
        <time>2026-09-03T15:18:14.706Z</time>
      </trkpt>
      <trkpt lat="47.32086" lon="-1.80448">
        <ele>86.921767</ele>
        <time>2026-09-03T15:18:25.698Z</time>
      </trkpt>
      <trkpt lat="47.32094" lon="-1.80436">
        <ele>86.929499</ele>
        <time>2026-09-03T15:18:28.435Z</time>
      </trkpt>
      <trkpt lat="47.32135" lon="-1.80397">
        <ele>86.964273</ele>
        <time>2026-09-03T15:18:41.003Z</time>
      </trkpt>
      <trkpt lat="47.32172" lon="-1.80376">
        <ele>86.992111</ele>
        <time>2026-09-03T15:18:51.164Z</time>
      </trkpt>
      <trkpt lat="47.32239" lon="-1.80345">
        <ele>87.377373</ele>
        <time>2026-09-03T15:19:10.022Z</time>
      </trkpt>
      <trkpt lat="47.32279" lon="-1.8032">
        <ele>87.661977</ele>
        <time>2026-09-03T15:19:22.148Z</time>
      </trkpt>
      <trkpt lat="47.32316" lon="-1.80293">
        <ele>87.940061</ele>
        <time>2026-09-03T15:19:30.021Z</time>
      </trkpt>
      <trkpt lat="47.32303" lon="-1.80224">
        <ele>88.297266</ele>
        <time>2026-09-03T15:19:39.111Z</time>
      </trkpt>
      <trkpt lat="47.32305" lon="-1.80216">
        <ele>88.352162</ele>
        <time>2026-09-03T15:19:40.224Z</time>
      </trkpt>
      <trkpt lat="47.32359" lon="-1.80167">
        <ele>88.967255</ele>
        <time>2026-09-03T15:19:53.158Z</time>
      </trkpt>
      <trkpt lat="47.32393" lon="-1.80145">
        <ele>89.338168</ele>
        <time>2026-09-03T15:20:00.662Z</time>
      </trkpt>
      <trkpt lat="47.32407" lon="-1.80078">
        <ele>89.808653</ele>
        <time>2026-09-03T15:20:08.774Z</time>
      </trkpt>
      <trkpt lat="47.32363" lon="-1.80028">
        <ele>89.922149</ele>
        <time>2026-09-03T15:20:19.184Z</time>
      </trkpt>
      <trkpt lat="47.32345" lon="-1.80002">
        <ele>89.906786</ele>
        <time>2026-09-03T15:20:23.417Z</time>
      </trkpt>
      <trkpt lat="47.32378" lon="-1.79943">
        <ele>89.874424</ele>
        <time>2026-09-03T15:20:36.331Z</time>
      </trkpt>
      <trkpt lat="47.32462" lon="-1.79812">
        <ele>89.380355</ele>
        <time>2026-09-03T15:21:05.413Z</time>
      </trkpt>
      <trkpt lat="47.32409" lon="-1.7974">
        <ele>88.837919</ele>
        <time>2026-09-03T15:21:22.617Z</time>
      </trkpt>
      <trkpt lat="47.32392" lon="-1.79708">
        <ele>88.632274</ele>
        <time>2026-09-03T15:21:29.112Z</time>
      </trkpt>
      <trkpt lat="47.3235" lon="-1.79721">
        <ele>88.313256</ele>
        <time>2026-09-03T15:21:39.346Z</time>
      </trkpt>
      <trkpt lat="47.32207" lon="-1.79781">
        <ele>87.241997</ele>
        <time>2026-09-03T15:22:14.578Z</time>
      </trkpt>
      <trkpt lat="47.32188" lon="-1.79675">
        <ele>87.02108</ele>
        <time>2026-09-03T15:22:33.012Z</time>
      </trkpt>
      <trkpt lat="47.32182" lon="-1.7964">
        <ele>86.960944</ele>
        <time>2026-09-03T15:22:39.171Z</time>
      </trkpt>
      <trkpt lat="47.3218" lon="-1.79608">
        <ele>86.908986</ele>
        <time>2026-09-03T15:22:44.541Z</time>
      </trkpt>
      <trkpt lat="47.3218" lon="-1.79547">
        <ele>86.807356</ele>
        <time>2026-09-03T15:22:55.045Z</time>
      </trkpt>
      <trkpt lat="47.3218" lon="-1.79518">
        <ele>86.759276</ele>
        <time>2026-09-03T15:22:59.942Z</time>
      </trkpt>
      <trkpt lat="47.32175" lon="-1.7949">
        <ele>86.646018</ele>
        <time>2026-09-03T15:23:04.801Z</time>
      </trkpt>
      <trkpt lat="47.32169" lon="-1.79478">
        <ele>86.565796</ele>
        <time>2026-09-03T15:23:07.396Z</time>
      </trkpt>
      <trkpt lat="47.32128" lon="-1.79475">
        <ele>86.256499</ele>
        <time>2026-09-03T15:23:17.236Z</time>
      </trkpt>
      <trkpt lat="47.32123" lon="-1.7947">
        <ele>86.208701</ele>
        <time>2026-09-03T15:23:18.739Z</time>
      </trkpt>
      <trkpt lat="47.32096" lon="-1.79503">
        <ele>85.94389</ele>
        <time>2026-09-03T15:23:27.041Z</time>
      </trkpt>
      <trkpt lat="47.32064" lon="-1.79537">
        <ele>85.641136</ele>
        <time>2026-09-03T15:23:36.454Z</time>
      </trkpt>
      <trkpt lat="47.32003" lon="-1.79583">
        <ele>84.745902</ele>
        <time>2026-09-03T15:23:51.963Z</time>
      </trkpt>
      <trkpt lat="47.31988" lon="-1.79589">
        <ele>84.431968</ele>
        <time>2026-09-03T15:23:55.563Z</time>
      </trkpt>
      <trkpt lat="47.31945" lon="-1.7959">
        <ele>83.615668</ele>
        <time>2026-09-03T15:24:04.798Z</time>
      </trkpt>
      <trkpt lat="47.31878" lon="-1.79579">
        <ele>82.315909</ele>
        <time>2026-09-03T15:24:19.419Z</time>
      </trkpt>
      <trkpt lat="47.31844" lon="-1.79625">
        <ele>81.553414</ele>
        <time>2026-09-03T15:24:29.453Z</time>
      </trkpt>
      <trkpt lat="47.31817" lon="-1.79638">
        <ele>81.144556</ele>
        <time>2026-09-03T15:24:35.822Z</time>
      </trkpt>
      <trkpt lat="47.31771" lon="-1.79654">
        <ele>80.473285</ele>
        <time>2026-09-03T15:24:46.572Z</time>
      </trkpt>
      <trkpt lat="47.3173" lon="-1.79688">
        <ele>79.81428</ele>
        <time>2026-09-03T15:24:57.402Z</time>
      </trkpt>
      <trkpt lat="47.31676" lon="-1.79715">
        <ele>79.016487</ele>
        <time>2026-09-03T15:25:11.019Z</time>
      </trkpt>
      <trkpt lat="47.31636" lon="-1.79745">
        <ele>78.407048</ele>
        <time>2026-09-03T15:25:21.642Z</time>
      </trkpt>
      <trkpt lat="47.31595" lon="-1.79765">
        <ele>77.817498</ele>
        <time>2026-09-03T15:25:31.745Z</time>
      </trkpt>
      <trkpt lat="47.31571" lon="-1.79766">
        <ele>77.481748</ele>
        <time>2026-09-03T15:25:37.348Z</time>
      </trkpt>
      <trkpt lat="47.31461" lon="-1.79731">
        <ele>75.310948</ele>
        <time>2026-09-03T15:26:01.526Z</time>
      </trkpt>
      <trkpt lat="47.31358" lon="-1.79672">
        <ele>72.810259</ele>
        <time>2026-09-03T15:26:24.795Z</time>
      </trkpt>
      <trkpt lat="47.31308" lon="-1.79672">
        <ele>72.819118</ele>
        <time>2026-09-03T15:26:36.548Z</time>
      </trkpt>
      <trkpt lat="47.31291" lon="-1.79512">
        <ele>72.838491</ele>
        <time>2026-09-03T15:26:56.609Z</time>
      </trkpt>
      <trkpt lat="47.31287" lon="-1.7944">
        <ele>73.036205</ele>
        <time>2026-09-03T15:27:06.714Z</time>
      </trkpt>
      <trkpt lat="47.31114" lon="-1.79459">
        <ele>74.107234</ele>
        <time>2026-09-03T15:27:33.858Z</time>
      </trkpt>
      <trkpt lat="47.31042" lon="-1.79467">
        <ele>74.349394</ele>
        <time>2026-09-03T15:27:44.535Z</time>
      </trkpt>
      <trkpt lat="47.30975" lon="-1.79464">
        <ele>74.573869</ele>
        <time>2026-09-03T15:27:54.445Z</time>
      </trkpt>
      <trkpt lat="47.3097" lon="-1.79483">
        <ele>74.620078</ele>
        <time>2026-09-03T15:27:56.787Z</time>
      </trkpt>
      <trkpt lat="47.30952" lon="-1.79504">
        <ele>74.57287</ele>
        <time>2026-09-03T15:28:00.609Z</time>
      </trkpt>
      <trkpt lat="47.30907" lon="-1.79532">
        <ele>74.402974</ele>
        <time>2026-09-03T15:28:08.828Z</time>
      </trkpt>
      <trkpt lat="47.30832" lon="-1.79592">
        <ele>74.108891</ele>
        <time>2026-09-03T15:28:21.782Z</time>
      </trkpt>
      <trkpt lat="47.30721" lon="-1.79695">
        <ele>72.350803</ele>
        <time>2026-09-03T15:28:39.431Z</time>
      </trkpt>
      <trkpt lat="47.30656" lon="-1.79762">
        <ele>71.08617</ele>
        <time>2026-09-03T15:28:49.556Z</time>
      </trkpt>
      <trkpt lat="47.30578" lon="-1.79899">
        <ele>69.220299</ele>
        <time>2026-09-03T15:29:05.381Z</time>
      </trkpt>
      <trkpt lat="47.30562" lon="-1.79922">
        <ele>68.871863</ele>
        <time>2026-09-03T15:29:08.498Z</time>
      </trkpt>
      <trkpt lat="47.30497" lon="-1.79964">
        <ele>68.544664</ele>
        <time>2026-09-03T15:29:18.723Z</time>
      </trkpt>
      <trkpt lat="47.30487" lon="-1.79976">
        <ele>68.602068</ele>
        <time>2026-09-03T15:29:20.706Z</time>
      </trkpt>
      <trkpt lat="47.30445" lon="-1.80057">
        <ele>68.912965</ele>
        <time>2026-09-03T15:29:32.894Z</time>
      </trkpt>
      <trkpt lat="47.30432" lon="-1.8007">
        <ele>68.985238</ele>
        <time>2026-09-03T15:29:36.058Z</time>
      </trkpt>
      <trkpt lat="47.30344" lon="-1.80104">
        <ele>69.684456</ele>
        <time>2026-09-03T15:29:55.740Z</time>
      </trkpt>
      <trkpt lat="47.30282" lon="-1.80121">
        <ele>70.361687</ele>
        <time>2026-09-03T15:30:09.364Z</time>
      </trkpt>
      <trkpt lat="47.30278" lon="-1.80118">
        <ele>70.408513</ele>
        <time>2026-09-03T15:30:10.230Z</time>
      </trkpt>
      <trkpt lat="47.3025" lon="-1.80124">
        <ele>70.712655</ele>
        <time>2026-09-03T15:30:15.696Z</time>
      </trkpt>
      <trkpt lat="47.30224" lon="-1.80142">
        <ele>71.024367</ele>
        <time>2026-09-03T15:30:20.938Z</time>
      </trkpt>
      <trkpt lat="47.30205" lon="-1.80154">
        <ele>71.0208</ele>
        <time>2026-09-03T15:30:24.289Z</time>
      </trkpt>
      <trkpt lat="47.30054" lon="-1.8029">
        <ele>69.513111</ele>
        <time>2026-09-03T15:30:49.782Z</time>
      </trkpt>
      <trkpt lat="47.30037" lon="-1.80331">
        <ele>68.676577</ele>
        <time>2026-09-03T15:30:53.855Z</time>
      </trkpt>
      <trkpt lat="47.3003" lon="-1.80372">
        <ele>67.939738</ele>
        <time>2026-09-03T15:30:57.347Z</time>
      </trkpt>
      <trkpt lat="47.30015" lon="-1.80404">
        <ele>67.260563</ele>
        <time>2026-09-03T15:31:00.487Z</time>
      </trkpt>
      <trkpt lat="47.29886" lon="-1.80512">
        <ele>64.350301</ele>
        <time>2026-09-03T15:31:18.433Z</time>
      </trkpt>
      <trkpt lat="47.29866" lon="-1.80527">
        <ele>64.082989</ele>
        <time>2026-09-03T15:31:21.547Z</time>
      </trkpt>
      <trkpt lat="47.29849" lon="-1.80535">
        <ele>63.881699</ele>
        <time>2026-09-03T15:31:24.006Z</time>
      </trkpt>
      <trkpt lat="47.2983" lon="-1.80537">
        <ele>63.65898</ele>
        <time>2026-09-03T15:31:26.874Z</time>
      </trkpt>
      <trkpt lat="47.29778" lon="-1.80528">
        <ele>63.04344</ele>
        <time>2026-09-03T15:31:35.932Z</time>
      </trkpt>
      <trkpt lat="47.29749" lon="-1.80524">
        <ele>63.425156</ele>
        <time>2026-09-03T15:31:41.669Z</time>
      </trkpt>
      <trkpt lat="47.29751" lon="-1.80509">
        <ele>63.577371</ele>
        <time>2026-09-03T15:31:43.728Z</time>
      </trkpt>
      <trkpt lat="47.29758" lon="-1.80416">
        <ele>64.555026</ele>
        <time>2026-09-03T15:31:57.160Z</time>
      </trkpt>
      <trkpt lat="47.29767" lon="-1.80379">
        <ele>64.971093</ele>
        <time>2026-09-03T15:32:03.083Z</time>
      </trkpt>
      <trkpt lat="47.29855" lon="-1.80193">
        <ele>68.127403</ele>
        <time>2026-09-03T15:32:39.811Z</time>
      </trkpt>
      <trkpt lat="47.2987" lon="-1.80159">
        <ele>68.772184</ele>
        <time>2026-09-03T15:32:46.795Z</time>
      </trkpt>
      <trkpt lat="47.29891" lon="-1.80116">
        <ele>69.60107</ele>
        <time>2026-09-03T15:32:55.644Z</time>
      </trkpt>
      <trkpt lat="47.29899" lon="-1.80093">
        <ele>70.006225</ele>
        <time>2026-09-03T15:32:59.959Z</time>
      </trkpt>
      <trkpt lat="47.29905" lon="-1.80051">
        <ele>70.588796</ele>
        <time>2026-09-03T15:33:07.116Z</time>
      </trkpt>
      <trkpt lat="47.29901" lon="-1.80001">
        <ele>71.281345</ele>
        <time>2026-09-03T15:33:15.768Z</time>
      </trkpt>
      <trkpt lat="47.29883" lon="-1.79937">
        <ele>72.227914</ele>
        <time>2026-09-03T15:33:27.043Z</time>
      </trkpt>
      <trkpt lat="47.29874" lon="-1.7985">
        <ele>73.433769</ele>
        <time>2026-09-03T15:33:40.384Z</time>
      </trkpt>
      <trkpt lat="47.29867" lon="-1.79733">
        <ele>73.276571</ele>
        <time>2026-09-03T15:33:54.995Z</time>
      </trkpt>
      <trkpt lat="47.29825" lon="-1.79568">
        <ele>72.673925</ele>
        <time>2026-09-03T15:34:11.195Z</time>
      </trkpt>
      <trkpt lat="47.29823" lon="-1.79548">
        <ele>72.535436</ele>
        <time>2026-09-03T15:34:13.017Z</time>
      </trkpt>
      <trkpt lat="47.29821" lon="-1.79526">
        <ele>72.391529</ele>
        <time>2026-09-03T15:34:14.931Z</time>
      </trkpt>
      <trkpt lat="47.2983" lon="-1.79401">
        <ele>71.548211</ele>
        <time>2026-09-03T15:34:26.693Z</time>
      </trkpt>
      <trkpt lat="47.29833" lon="-1.79312">
        <ele>70.975227</ele>
        <time>2026-09-03T15:34:35.927Z</time>
      </trkpt>
      <trkpt lat="47.29837" lon="-1.79268">
        <ele>70.780197</ele>
        <time>2026-09-03T15:34:40.627Z</time>
      </trkpt>
      <trkpt lat="47.29841" lon="-1.79246">
        <ele>70.675159</ele>
        <time>2026-09-03T15:34:43.164Z</time>
      </trkpt>
      <trkpt lat="47.29864" lon="-1.79196">
        <ele>70.406718</ele>
        <time>2026-09-03T15:34:49.596Z</time>
      </trkpt>
      <trkpt lat="47.29883" lon="-1.79164">
        <ele>70.220667</ele>
        <time>2026-09-03T15:34:53.886Z</time>
      </trkpt>
      <trkpt lat="47.29912" lon="-1.79096">
        <ele>69.862562</ele>
        <time>2026-09-03T15:35:01.557Z</time>
      </trkpt>
      <trkpt lat="47.29935" lon="-1.79021">
        <ele>68.074505</ele>
        <time>2026-09-03T15:35:08.641Z</time>
      </trkpt>
      <trkpt lat="47.29913" lon="-1.79006">
        <ele>67.265844</ele>
        <time>2026-09-03T15:35:11.035Z</time>
      </trkpt>
      <trkpt lat="47.29876" lon="-1.78968">
        <ele>65.720365</ele>
        <time>2026-09-03T15:35:15.483Z</time>
      </trkpt>
      <trkpt lat="47.29785" lon="-1.78855">
        <ele>61.581544</ele>
        <time>2026-09-03T15:35:26.644Z</time>
      </trkpt>
      <trkpt lat="47.29736" lon="-1.78795">
        <ele>59.33801</ele>
        <time>2026-09-03T15:35:32.721Z</time>
      </trkpt>
      <trkpt lat="47.29704" lon="-1.78759">
        <ele>57.909331</ele>
        <time>2026-09-03T15:35:36.947Z</time>
      </trkpt>
      <trkpt lat="47.29685" lon="-1.78749">
        <ele>57.386082</ele>
        <time>2026-09-03T15:35:39.263Z</time>
      </trkpt>
      <trkpt lat="47.2966" lon="-1.7874">
        <ele>57.751539</ele>
        <time>2026-09-03T15:35:42.648Z</time>
      </trkpt>
      <trkpt lat="47.29634" lon="-1.78735">
        <ele>58.115567</ele>
        <time>2026-09-03T15:35:46.845Z</time>
      </trkpt>
      <trkpt lat="47.29608" lon="-1.78739">
        <ele>58.475686</ele>
        <time>2026-09-03T15:35:51.782Z</time>
      </trkpt>
      <trkpt lat="47.29544" lon="-1.78765">
        <ele>59.404126</ele>
        <time>2026-09-03T15:36:06.804Z</time>
      </trkpt>
      <trkpt lat="47.29511" lon="-1.78784">
        <ele>59.96889</ele>
        <time>2026-09-03T15:36:15.400Z</time>
      </trkpt>
      <trkpt lat="47.295" lon="-1.78796">
        <ele>60.37671</ele>
        <time>2026-09-03T15:36:18.758Z</time>
      </trkpt>
      <trkpt lat="47.29475" lon="-1.78843">
        <ele>61.571239</ele>
        <time>2026-09-03T15:36:28.659Z</time>
      </trkpt>
      <trkpt lat="47.29453" lon="-1.7887">
        <ele>62.418436</ele>
        <time>2026-09-03T15:36:35.654Z</time>
      </trkpt>
      <trkpt lat="47.2944" lon="-1.78877">
        <ele>62.826432</ele>
        <time>2026-09-03T15:36:39.016Z</time>
      </trkpt>
      <trkpt lat="47.29424" lon="-1.78882">
        <ele>63.321347</ele>
        <time>2026-09-03T15:36:43.121Z</time>
      </trkpt>
      <trkpt lat="47.29408" lon="-1.78879">
        <ele>63.808473</ele>
        <time>2026-09-03T15:36:47.212Z</time>
      </trkpt>
      <trkpt lat="47.29388" lon="-1.78861">
        <ele>64.496688</ele>
        <time>2026-09-03T15:36:53.122Z</time>
      </trkpt>
      <trkpt lat="47.29375" lon="-1.7884">
        <ele>65.062167</ele>
        <time>2026-09-03T15:36:58.068Z</time>
      </trkpt>
      <trkpt lat="47.29316" lon="-1.78664">
        <ele>67.848699</ele>
        <time>2026-09-03T15:37:29.042Z</time>
      </trkpt>
      <trkpt lat="47.29277" lon="-1.78559">
        <ele>68.903569</ele>
        <time>2026-09-03T15:37:42.129Z</time>
      </trkpt>
      <trkpt lat="47.29221" lon="-1.7844">
        <ele>68.943229</ele>
        <time>2026-09-03T15:37:54.870Z</time>
      </trkpt>
      <trkpt lat="47.29177" lon="-1.78365">
        <ele>69.043333</ele>
        <time>2026-09-03T15:38:03.835Z</time>
      </trkpt>
      <trkpt lat="47.29165" lon="-1.78354">
        <ele>69.112069</ele>
        <time>2026-09-03T15:38:05.739Z</time>
      </trkpt>
      <trkpt lat="47.29146" lon="-1.78345">
        <ele>69.214141</ele>
        <time>2026-09-03T15:38:08.643Z</time>
      </trkpt>
      <trkpt lat="47.29109" lon="-1.7834">
        <ele>69.397877</ele>
        <time>2026-09-03T15:38:14.104Z</time>
      </trkpt>
      <trkpt lat="47.29033" lon="-1.78338">
        <ele>69.775082</ele>
        <time>2026-09-03T15:38:26.371Z</time>
      </trkpt>
      <trkpt lat="47.29028" lon="-1.78337">
        <ele>69.800471</ele>
        <time>2026-09-03T15:38:27.203Z</time>
      </trkpt>
      <trkpt lat="47.29045" lon="-1.78138">
        <ele>71.648479</ele>
        <time>2026-09-03T15:38:55.846Z</time>
      </trkpt>
      <trkpt lat="47.29046" lon="-1.78092">
        <ele>72.095462</ele>
        <time>2026-09-03T15:39:02.992Z</time>
      </trkpt>
      <trkpt lat="47.29041" lon="-1.77994">
        <ele>72.595872</ele>
        <time>2026-09-03T15:39:17.447Z</time>
      </trkpt>
      <trkpt lat="47.29042" lon="-1.77941">
        <ele>72.726112</ele>
        <time>2026-09-03T15:39:24.511Z</time>
      </trkpt>
      <trkpt lat="47.29025" lon="-1.77771">
        <ele>73.069598</ele>
        <time>2026-09-03T15:39:42.057Z</time>
      </trkpt>
      <trkpt lat="47.29027" lon="-1.77746">
        <ele>73.040429</ele>
        <time>2026-09-03T15:39:44.411Z</time>
      </trkpt>
      <trkpt lat="47.29032" lon="-1.77713">
        <ele>73.001014</ele>
        <time>2026-09-03T15:39:47.666Z</time>
      </trkpt>
      <trkpt lat="47.29053" lon="-1.77604">
        <ele>72.871633</ele>
        <time>2026-09-03T15:39:59.232Z</time>
      </trkpt>
      <trkpt lat="47.29057" lon="-1.77576">
        <ele>72.838641</ele>
        <time>2026-09-03T15:40:02.386Z</time>
      </trkpt>
      <trkpt lat="47.29059" lon="-1.77541">
        <ele>72.797704</ele>
        <time>2026-09-03T15:40:06.721Z</time>
      </trkpt>
      <trkpt lat="47.29059" lon="-1.7748">
        <ele>73.300238</ele>
        <time>2026-09-03T15:40:14.853Z</time>
      </trkpt>
      <trkpt lat="47.29075" lon="-1.77348">
        <ele>74.530464</ele>
        <time>2026-09-03T15:40:33.975Z</time>
      </trkpt>
      <trkpt lat="47.2908" lon="-1.77264">
        <ele>75.323219</ele>
        <time>2026-09-03T15:40:46.450Z</time>
      </trkpt>
      <trkpt lat="47.2908" lon="-1.77198">
        <ele>76.044266</ele>
        <time>2026-09-03T15:40:56.996Z</time>
      </trkpt>
      <trkpt lat="47.2907" lon="-1.77025">
        <ele>77.940731</ele>
        <time>2026-09-03T15:41:23.846Z</time>
      </trkpt>
      <trkpt lat="47.28947" lon="-1.77023">
        <ele>77.928467</ele>
        <time>2026-09-03T15:41:55.601Z</time>
      </trkpt>
      <trkpt lat="47.28864" lon="-1.77017">
        <ele>77.579815</ele>
        <time>2026-09-03T15:42:15.229Z</time>
      </trkpt>
      <trkpt lat="47.28767" lon="-1.77017">
        <ele>76.139962</ele>
        <time>2026-09-03T15:42:37.284Z</time>
      </trkpt>
      <trkpt lat="47.28741" lon="-1.77016">
        <ele>75.753222</ele>
        <time>2026-09-03T15:42:43.079Z</time>
      </trkpt>
      <trkpt lat="47.28711" lon="-1.77025">
        <ele>75.308343</ele>
        <time>2026-09-03T15:42:49.707Z</time>
      </trkpt>
      <trkpt lat="47.28655" lon="-1.77057">
        <ele>74.378449</ele>
        <time>2026-09-03T15:43:02.904Z</time>
      </trkpt>
      <trkpt lat="47.28625" lon="-1.77083">
        <ele>73.836082</ele>
        <time>2026-09-03T15:43:10.565Z</time>
      </trkpt>
      <trkpt lat="47.28594" lon="-1.77116">
        <ele>73.239874</ele>
        <time>2026-09-03T15:43:15.607Z</time>
      </trkpt>
      <trkpt lat="47.28566" lon="-1.77142">
        <ele>72.719513</ele>
        <time>2026-09-03T15:43:20.145Z</time>
      </trkpt>
      <trkpt lat="47.28552" lon="-1.77141">
        <ele>72.508981</ele>
        <time>2026-09-03T15:43:22.008Z</time>
      </trkpt>
      <trkpt lat="47.28552" lon="-1.77127">
        <ele>72.364234</ele>
        <time>2026-09-03T15:43:23.118Z</time>
      </trkpt>
      <trkpt lat="47.2855" lon="-1.77118">
        <ele>72.335314</ele>
        <time>2026-09-03T15:43:23.916Z</time>
      </trkpt>
      <trkpt lat="47.28525" lon="-1.77076">
        <ele>72.406871</ele>
        <time>2026-09-03T15:43:28.670Z</time>
      </trkpt>
      <trkpt lat="47.28463" lon="-1.77042">
        <ele>72.532984</ele>
        <time>2026-09-03T15:43:38.475Z</time>
      </trkpt>
      <trkpt lat="47.28459" lon="-1.77036">
        <ele>72.54289</ele>
        <time>2026-09-03T15:43:39.314Z</time>
      </trkpt>
      <trkpt lat="47.28458" lon="-1.77024">
        <ele>72.558373</ele>
        <time>2026-09-03T15:43:40.636Z</time>
      </trkpt>
      <trkpt lat="47.28465" lon="-1.76886">
        <ele>73.004815</ele>
        <time>2026-09-03T15:43:56.300Z</time>
      </trkpt>
      <trkpt lat="47.28497" lon="-1.76874">
        <ele>73.308615</ele>
        <time>2026-09-03T15:44:01.948Z</time>
      </trkpt>
      <trkpt lat="47.28593" lon="-1.76816">
        <ele>74.280802</ele>
        <time>2026-09-03T15:44:19.746Z</time>
      </trkpt>
      <trkpt lat="47.28635" lon="-1.76784">
        <ele>74.664129</ele>
        <time>2026-09-03T15:44:28.019Z</time>
      </trkpt>
      <trkpt lat="47.28632" lon="-1.76755">
        <ele>74.818221</ele>
        <time>2026-09-03T15:44:33.645Z</time>
      </trkpt>
      <trkpt lat="47.28676" lon="-1.76694">
        <ele>75.301282</ele>
        <time>2026-09-03T15:44:50.883Z</time>
      </trkpt>
      <trkpt lat="47.28678" lon="-1.76668">
        <ele>75.438764</ele>
        <time>2026-09-03T15:44:55.677Z</time>
      </trkpt>
      <trkpt lat="47.28668" lon="-1.76613">
        <ele>75.749072</ele>
        <time>2026-09-03T15:45:06.291Z</time>
      </trkpt>
      <trkpt lat="47.28671" lon="-1.76583">
        <ele>75.872436</ele>
        <time>2026-09-03T15:45:11.840Z</time>
      </trkpt>
      <trkpt lat="47.28635" lon="-1.76456">
        <ele>76.398404</ele>
        <time>2026-09-03T15:45:36.782Z</time>
      </trkpt>
      <trkpt lat="47.28629" lon="-1.76443">
        <ele>76.455737</ele>
        <time>2026-09-03T15:45:39.578Z</time>
      </trkpt>
      <trkpt lat="47.28605" lon="-1.76387">
        <ele>76.70802</ele>
        <time>2026-09-03T15:45:52.207Z</time>
      </trkpt>
      <trkpt lat="47.28603" lon="-1.76371">
        <ele>76.769733</ele>
        <time>2026-09-03T15:45:55.357Z</time>
      </trkpt>
      <trkpt lat="47.28629" lon="-1.76111">
        <ele>78.344807</ele>
        <time>2026-09-03T15:46:47.605Z</time>
      </trkpt>
      <trkpt lat="47.28625" lon="-1.76065">
        <ele>78.210788</ele>
        <time>2026-09-03T15:46:55.883Z</time>
      </trkpt>
      <trkpt lat="47.28618" lon="-1.76043">
        <ele>78.106986</ele>
        <time>2026-09-03T15:47:00.136Z</time>
      </trkpt>
      <trkpt lat="47.28551" lon="-1.75951">
        <ele>77.535298</ele>
        <time>2026-09-03T15:47:22.028Z</time>
      </trkpt>
      <trkpt lat="47.28528" lon="-1.75926">
        <ele>77.355964</ele>
        <time>2026-09-03T15:47:28.496Z</time>
      </trkpt>
      <trkpt lat="47.28503" lon="-1.75915">
        <ele>77.146708</ele>
        <time>2026-09-03T15:47:34.296Z</time>
      </trkpt>
      <trkpt lat="47.28442" lon="-1.75888">
        <ele>76.441438</ele>
        <time>2026-09-03T15:47:48.867Z</time>
      </trkpt>
      <trkpt lat="47.28433" lon="-1.75891">
        <ele>76.342332</ele>
        <time>2026-09-03T15:47:50.919Z</time>
      </trkpt>
      <trkpt lat="47.28371" lon="-1.75848">
        <ele>75.586949</ele>
        <time>2026-09-03T15:48:06.916Z</time>
      </trkpt>
      <trkpt lat="47.28309" lon="-1.7587">
        <ele>75.261942</ele>
        <time>2026-09-03T15:48:22.461Z</time>
      </trkpt>
      <trkpt lat="47.28286" lon="-1.75874">
        <ele>75.24942</ele>
        <time>2026-09-03T15:48:28.101Z</time>
      </trkpt>
      <trkpt lat="47.28271" lon="-1.75871">
        <ele>75.240867</ele>
        <time>2026-09-03T15:48:31.990Z</time>
      </trkpt>
      <trkpt lat="47.28263" lon="-1.75904">
        <ele>75.227532</ele>
        <time>2026-09-03T15:48:35.289Z</time>
      </trkpt>
      <trkpt lat="47.28083" lon="-1.75878">
        <ele>74.845542</ele>
        <time>2026-09-03T15:49:05.572Z</time>
      </trkpt>
      <trkpt lat="47.28078" lon="-1.75878">
        <ele>74.830924</ele>
        <time>2026-09-03T15:49:06.223Z</time>
      </trkpt>
      <trkpt lat="47.28031" lon="-1.75881">
        <ele>74.670637</ele>
        <time>2026-09-03T15:49:13.103Z</time>
      </trkpt>
      <trkpt lat="47.27984" lon="-1.75901">
        <ele>74.19332</ele>
        <time>2026-09-03T15:49:19.740Z</time>
      </trkpt>
      <trkpt lat="47.2793" lon="-1.75966">
        <ele>72.830503</ele>
        <time>2026-09-03T15:49:28.884Z</time>
      </trkpt>
      <trkpt lat="47.27761" lon="-1.76073">
        <ele>69.060826</ele>
        <time>2026-09-03T15:49:52.169Z</time>
      </trkpt>
      <trkpt lat="47.27628" lon="-1.76166">
        <ele>66.192218</ele>
        <time>2026-09-03T15:50:10.955Z</time>
      </trkpt>
      <trkpt lat="47.27571" lon="-1.76202">
        <ele>65.187779</ele>
        <time>2026-09-03T15:50:18.929Z</time>
      </trkpt>
      <trkpt lat="47.27525" lon="-1.76227">
        <ele>64.374258</ele>
        <time>2026-09-03T15:50:30.629Z</time>
      </trkpt>
      <trkpt lat="47.2751" lon="-1.76225">
        <ele>64.249086</ele>
        <time>2026-09-03T15:50:34.204Z</time>
      </trkpt>
      <trkpt lat="47.27496" lon="-1.76219">
        <ele>64.242458</ele>
        <time>2026-09-03T15:50:37.624Z</time>
      </trkpt>
      <trkpt lat="47.27485" lon="-1.76194">
        <ele>64.232866</ele>
        <time>2026-09-03T15:50:42.605Z</time>
      </trkpt>
      <trkpt lat="47.27479" lon="-1.76164">
        <ele>64.222974</ele>
        <time>2026-09-03T15:50:47.747Z</time>
      </trkpt>
      <trkpt lat="47.27479" lon="-1.76132">
        <ele>64.213178</ele>
        <time>2026-09-03T15:50:53.001Z</time>
      </trkpt>
      <trkpt lat="47.27482" lon="-1.7609">
        <ele>64.199776</ele>
        <time>2026-09-03T15:51:00.685Z</time>
      </trkpt>
      <trkpt lat="47.2749" lon="-1.76025">
        <ele>64.17906</ele>
        <time>2026-09-03T15:51:13.278Z</time>
      </trkpt>
      <trkpt lat="47.275" lon="-1.75966">
        <ele>64.167925</ele>
        <time>2026-09-03T15:51:24.617Z</time>
      </trkpt>
      <trkpt lat="47.27508" lon="-1.7593">
        <ele>64.166542</ele>
        <time>2026-09-03T15:51:31.226Z</time>
      </trkpt>
      <trkpt lat="47.27516" lon="-1.7587">
        <ele>64.16429</ele>
        <time>2026-09-03T15:51:41.682Z</time>
      </trkpt>
      <trkpt lat="47.27516" lon="-1.75852">
        <ele>64.163619</ele>
        <time>2026-09-03T15:51:44.748Z</time>
      </trkpt>
      <trkpt lat="47.27511" lon="-1.75843">
        <ele>64.163184</ele>
        <time>2026-09-03T15:51:46.712Z</time>
      </trkpt>
      <trkpt lat="47.2742" lon="-1.75875">
        <ele>64.358413</ele>
        <time>2026-09-03T15:52:10.008Z</time>
      </trkpt>
      <trkpt lat="47.27411" lon="-1.75878">
        <ele>64.435747</ele>
        <time>2026-09-03T15:52:12.216Z</time>
      </trkpt>
      <trkpt lat="47.27404" lon="-1.75873">
        <ele>64.5138</ele>
        <time>2026-09-03T15:52:14.428Z</time>
      </trkpt>
      <trkpt lat="47.27383" lon="-1.75817">
        <ele>64.910429</ele>
        <time>2026-09-03T15:52:26.291Z</time>
      </trkpt>
      <trkpt lat="47.27385" lon="-1.7581">
        <ele>64.956655</ele>
        <time>2026-09-03T15:52:27.289Z</time>
      </trkpt>
      <trkpt lat="47.27412" lon="-1.75721">
        <ele>65.569276</ele>
        <time>2026-09-03T15:52:41.230Z</time>
      </trkpt>
      <trkpt lat="47.27432" lon="-1.75542">
        <ele>67.622233</ele>
        <time>2026-09-03T15:53:09.464Z</time>
      </trkpt>
      <trkpt lat="47.27452" lon="-1.75483">
        <ele>68.462306</ele>
        <time>2026-09-03T15:53:19.599Z</time>
      </trkpt>
      <trkpt lat="47.27459" lon="-1.75446">
        <ele>68.951632</ele>
        <time>2026-09-03T15:53:25.662Z</time>
      </trkpt>
      <trkpt lat="47.27463" lon="-1.7541">
        <ele>69.279885</ele>
        <time>2026-09-03T15:53:31.206Z</time>
      </trkpt>
      <trkpt lat="47.2747" lon="-1.75357">
        <ele>69.582584</ele>
        <time>2026-09-03T15:53:39.116Z</time>
      </trkpt>
      <trkpt lat="47.27486" lon="-1.75303">
        <ele>69.904355</ele>
        <time>2026-09-03T15:53:46.986Z</time>
      </trkpt>
      <trkpt lat="47.27483" lon="-1.75298">
        <ele>69.944773</ele>
        <time>2026-09-03T15:53:47.971Z</time>
      </trkpt>
      <trkpt lat="47.27478" lon="-1.7528">
        <ele>70.052037</ele>
        <time>2026-09-03T15:53:50.469Z</time>
      </trkpt>
      <trkpt lat="47.27474" lon="-1.75258">
        <ele>70.181785</ele>
        <time>2026-09-03T15:53:53.337Z</time>
      </trkpt>
      <trkpt lat="47.27472" lon="-1.75205">
        <ele>70.471156</ele>
        <time>2026-09-03T15:53:59.152Z</time>
      </trkpt>
      <trkpt lat="47.27465" lon="-1.75126">
        <ele>70.496216</ele>
        <time>2026-09-03T15:54:07.417Z</time>
      </trkpt>
      <trkpt lat="47.27465" lon="-1.75097">
        <ele>70.409463</ele>
        <time>2026-09-03T15:54:10.272Z</time>
      </trkpt>
      <trkpt lat="47.27468" lon="-1.75074">
        <ele>70.339098</ele>
        <time>2026-09-03T15:54:12.654Z</time>
      </trkpt>
      <trkpt lat="47.27475" lon="-1.75053">
        <ele>70.26852</ele>
        <time>2026-09-03T15:54:15.080Z</time>
      </trkpt>
      <trkpt lat="47.27543" lon="-1.75026">
        <ele>69.959014</ele>
        <time>2026-09-03T15:54:32.170Z</time>
      </trkpt>
      <trkpt lat="47.27589" lon="-1.75007">
        <ele>69.815902</ele>
        <time>2026-09-03T15:54:43.525Z</time>
      </trkpt>
      <trkpt lat="47.27651" lon="-1.74992">
        <ele>69.72754</ele>
        <time>2026-09-03T15:54:58.445Z</time>
      </trkpt>
      <trkpt lat="47.27718" lon="-1.74944">
        <ele>69.622525</ele>
        <time>2026-09-03T15:55:18.071Z</time>
      </trkpt>
      <trkpt lat="47.27704" lon="-1.74896">
        <ele>69.620563</ele>
        <time>2026-09-03T15:55:24.733Z</time>
      </trkpt>
      <trkpt lat="47.27656" lon="-1.74778">
        <ele>69.764091</ele>
        <time>2026-09-03T15:55:43.198Z</time>
      </trkpt>
      <trkpt lat="47.27622" lon="-1.74689">
        <ele>69.870894</ele>
        <time>2026-09-03T15:55:53.350Z</time>
      </trkpt>
      <trkpt lat="47.27611" lon="-1.74627">
        <ele>69.117875</ele>
        <time>2026-09-03T15:55:59.031Z</time>
      </trkpt>
      <trkpt lat="47.27583" lon="-1.74398">
        <ele>66.623977</ele>
        <time>2026-09-03T15:56:19.306Z</time>
      </trkpt>
      <trkpt lat="47.27602" lon="-1.74388">
        <ele>66.564932</ele>
        <time>2026-09-03T15:56:24.017Z</time>
      </trkpt>
      <trkpt lat="47.27643" lon="-1.74386">
        <ele>66.445677</ele>
        <time>2026-09-03T15:56:33.836Z</time>
      </trkpt>
      <trkpt lat="47.27691" lon="-1.74376">
        <ele>66.307235</ele>
        <time>2026-09-03T15:56:46.088Z</time>
      </trkpt>
      <trkpt lat="47.277" lon="-1.74369">
        <ele>66.27822</ele>
        <time>2026-09-03T15:56:48.887Z</time>
      </trkpt>
      <trkpt lat="47.27712" lon="-1.74351">
        <ele>66.227935</ele>
        <time>2026-09-03T15:56:53.846Z</time>
      </trkpt>
      <trkpt lat="47.2773" lon="-1.74295">
        <ele>66.485177</ele>
        <time>2026-09-03T15:57:06.341Z</time>
      </trkpt>
      <trkpt lat="47.27756" lon="-1.74247">
        <ele>67.134582</ele>
        <time>2026-09-03T15:57:19.146Z</time>
      </trkpt>
      <trkpt lat="47.27793" lon="-1.7415">
        <ele>68.321576</ele>
        <time>2026-09-03T15:57:43.388Z</time>
      </trkpt>
      <trkpt lat="47.27816" lon="-1.741">
        <ele>68.970896</ele>
        <time>2026-09-03T15:57:56.538Z</time>
      </trkpt>
      <trkpt lat="47.27811" lon="-1.74051">
        <ele>69.537874</ele>
        <time>2026-09-03T15:58:07.224Z</time>
      </trkpt>
      <trkpt lat="47.278" lon="-1.73997">
        <ele>70.165073</ele>
        <time>2026-09-03T15:58:18.737Z</time>
      </trkpt>
      <trkpt lat="47.27768" lon="-1.73884">
        <ele>71.560704</ele>
        <time>2026-09-03T15:58:44.889Z</time>
      </trkpt>
      <trkpt lat="47.27765" lon="-1.73837">
        <ele>72.081669</ele>
        <time>2026-09-03T15:58:55.087Z</time>
      </trkpt>
      <trkpt lat="47.27763" lon="-1.73772">
        <ele>72.720829</ele>
        <time>2026-09-03T15:59:09.182Z</time>
      </trkpt>
      <trkpt lat="47.27758" lon="-1.73754">
        <ele>72.910398</ele>
        <time>2026-09-03T15:59:13.385Z</time>
      </trkpt>
      <trkpt lat="47.27747" lon="-1.73729">
        <ele>73.210219</ele>
        <time>2026-09-03T15:59:20.019Z</time>
      </trkpt>
      <trkpt lat="47.27735" lon="-1.73714">
        <ele>73.427181</ele>
        <time>2026-09-03T15:59:24.826Z</time>
      </trkpt>
      <trkpt lat="47.2764" lon="-1.7359">
        <ele>74.567277</ele>
        <time>2026-09-03T16:00:02.139Z</time>
      </trkpt>
      <trkpt lat="47.27327" lon="-1.73733">
        <ele>73.506525</ele>
        <time>2026-09-03T16:01:21.791Z</time>
      </trkpt>
      <trkpt lat="47.27144" lon="-1.73825">
        <ele>72.908559</ele>
        <time>2026-09-03T16:02:10.046Z</time>
      </trkpt>
      <trkpt lat="47.27099" lon="-1.73736">
        <ele>72.382851</ele>
        <time>2026-09-03T16:02:21.221Z</time>
      </trkpt>
      <trkpt lat="47.27041" lon="-1.73758">
        <ele>71.965923</ele>
        <time>2026-09-03T16:02:35.219Z</time>
      </trkpt>
      <trkpt lat="47.26967" lon="-1.73775">
        <ele>70.970427</ele>
        <time>2026-09-03T16:02:52.350Z</time>
      </trkpt>
      <trkpt lat="47.26906" lon="-1.73795">
        <ele>70.011553</ele>
        <time>2026-09-03T16:03:06.391Z</time>
      </trkpt>
      <trkpt lat="47.26874" lon="-1.73812">
        <ele>69.501767</ele>
        <time>2026-09-03T16:03:13.854Z</time>
      </trkpt>
      <trkpt lat="47.26826" lon="-1.73871">
        <ele>68.662133</ele>
        <time>2026-09-03T16:03:27.798Z</time>
      </trkpt>
      <trkpt lat="47.2682" lon="-1.73847">
        <ele>68.44944</ele>
        <time>2026-09-03T16:03:31.693Z</time>
      </trkpt>
      <trkpt lat="47.26806" lon="-1.73772">
        <ele>67.804849</ele>
        <time>2026-09-03T16:03:43.662Z</time>
      </trkpt>
      <trkpt lat="47.26796" lon="-1.73746">
        <ele>67.55466</ele>
        <time>2026-09-03T16:03:48.422Z</time>
      </trkpt>
      <trkpt lat="47.26786" lon="-1.73729">
        <ele>67.365956</ele>
        <time>2026-09-03T16:03:52.079Z</time>
      </trkpt>
      <trkpt lat="47.26766" lon="-1.73712">
        <ele>67.079196</ele>
        <time>2026-09-03T16:03:57.661Z</time>
      </trkpt>
      <trkpt lat="47.26758" lon="-1.73701">
        <ele>66.942904</ele>
        <time>2026-09-03T16:04:00.315Z</time>
      </trkpt>
      <trkpt lat="47.26745" lon="-1.73685">
        <ele>66.911093</ele>
        <time>2026-09-03T16:04:04.348Z</time>
      </trkpt>
      <trkpt lat="47.26728" lon="-1.73662">
        <ele>66.931003</ele>
        <time>2026-09-03T16:04:09.708Z</time>
      </trkpt>
      <trkpt lat="47.26717" lon="-1.73637">
        <ele>66.949029</ele>
        <time>2026-09-03T16:04:14.454Z</time>
      </trkpt>
      <trkpt lat="47.2668" lon="-1.73579">
        <ele>66.996529</ele>
        <time>2026-09-03T16:04:27.794Z</time>
      </trkpt>
      <trkpt lat="47.26665" lon="-1.73576">
        <ele>67.009871</ele>
        <time>2026-09-03T16:04:31.869Z</time>
      </trkpt>
      <trkpt lat="47.2663" lon="-1.7358">
        <ele>67.041517</ele>
        <time>2026-09-03T16:04:42.044Z</time>
      </trkpt>
      <trkpt lat="47.26654" lon="-1.73468">
        <ele>68.297772</ele>
        <time>2026-09-03T16:04:59.750Z</time>
      </trkpt>
      <trkpt lat="47.2665" lon="-1.73438">
        <ele>68.705324</ele>
        <time>2026-09-03T16:05:04.824Z</time>
      </trkpt>
      <trkpt lat="47.26637" lon="-1.73389">
        <ele>69.422346</ele>
        <time>2026-09-03T16:05:14.361Z</time>
      </trkpt>
      <trkpt lat="47.26618" lon="-1.73328">
        <ele>70.347608</ele>
        <time>2026-09-03T16:05:25.794Z</time>
      </trkpt>
      <trkpt lat="47.26602" lon="-1.73294">
        <ele>70.685052</ele>
        <time>2026-09-03T16:05:31.916Z</time>
      </trkpt>
      <trkpt lat="47.26581" lon="-1.73266">
        <ele>70.731731</ele>
        <time>2026-09-03T16:05:37.534Z</time>
      </trkpt>
      <trkpt lat="47.26564" lon="-1.73233">
        <ele>70.778839</ele>
        <time>2026-09-03T16:05:42.499Z</time>
      </trkpt>
      <trkpt lat="47.26547" lon="-1.73228">
        <ele>70.806778</ele>
        <time>2026-09-03T16:05:45.190Z</time>
      </trkpt>
      <trkpt lat="47.26536" lon="-1.7322">
        <ele>70.827433</ele>
        <time>2026-09-03T16:05:47.103Z</time>
      </trkpt>
      <trkpt lat="47.26531" lon="-1.73205">
        <ele>70.845678</ele>
        <time>2026-09-03T16:05:48.759Z</time>
      </trkpt>
      <trkpt lat="47.26477" lon="-1.73209">
        <ele>70.935176</ele>
        <time>2026-09-03T16:06:01.578Z</time>
      </trkpt>
      <trkpt lat="47.26468" lon="-1.73164">
        <ele>71.009152</ele>
        <time>2026-09-03T16:06:09.046Z</time>
      </trkpt>
      <trkpt lat="47.26452" lon="-1.7308">
        <ele>71.193335</ele>
        <time>2026-09-03T16:06:23.583Z</time>
      </trkpt>
      <trkpt lat="47.26447" lon="-1.73064">
        <ele>71.228067</ele>
        <time>2026-09-03T16:06:26.497Z</time>
      </trkpt>
      <trkpt lat="47.26429" lon="-1.73025">
        <ele>71.327176</ele>
        <time>2026-09-03T16:06:35.253Z</time>
      </trkpt>
      <trkpt lat="47.26413" lon="-1.72967">
        <ele>71.459315</ele>
        <time>2026-09-03T16:06:43.742Z</time>
      </trkpt>
      <trkpt lat="47.26414" lon="-1.72963">
        <ele>71.467747</ele>
        <time>2026-09-03T16:06:44.319Z</time>
      </trkpt>
      <trkpt lat="47.26415" lon="-1.72957">
        <ele>71.479851</ele>
        <time>2026-09-03T16:06:45.166Z</time>
      </trkpt>
      <trkpt lat="47.26514" lon="-1.72843">
        <ele>72.917139</ele>
        <time>2026-09-03T16:07:13.109Z</time>
      </trkpt>
      <trkpt lat="47.26558" lon="-1.72787">
        <ele>73.6283</ele>
        <time>2026-09-03T16:07:24.253Z</time>
      </trkpt>
      <trkpt lat="47.26528" lon="-1.72658">
        <ele>73.325501</ele>
        <time>2026-09-03T16:07:38.976Z</time>
      </trkpt>
      <trkpt lat="47.26519" lon="-1.72637">
        <ele>73.248669</ele>
        <time>2026-09-03T16:07:41.355Z</time>
      </trkpt>
      <trkpt lat="47.26494" lon="-1.72595">
        <ele>73.073847</ele>
        <time>2026-09-03T16:07:46.604Z</time>
      </trkpt>
      <trkpt lat="47.26458" lon="-1.72515">
        <ele>72.781482</ele>
        <time>2026-09-03T16:07:55.759Z</time>
      </trkpt>
      <trkpt lat="47.26433" lon="-1.72465">
        <ele>72.606957</ele>
        <time>2026-09-03T16:08:01.583Z</time>
      </trkpt>
      <trkpt lat="47.26453" lon="-1.72443">
        <ele>72.503052</ele>
        <time>2026-09-03T16:08:05.156Z</time>
      </trkpt>
      <trkpt lat="47.2644" lon="-1.72376">
        <ele>72.307568</ele>
        <time>2026-09-03T16:08:16.720Z</time>
      </trkpt>
      <trkpt lat="47.26435" lon="-1.72333">
        <ele>72.183004</ele>
        <time>2026-09-03T16:08:24.619Z</time>
      </trkpt>
      <trkpt lat="47.2643" lon="-1.72272">
        <ele>72.456714</ele>
        <time>2026-09-03T16:08:36.323Z</time>
      </trkpt>
      <trkpt lat="47.26422" lon="-1.72252">
        <ele>72.619421</ele>
        <time>2026-09-03T16:08:40.921Z</time>
      </trkpt>
      <trkpt lat="47.26413" lon="-1.72237">
        <ele>72.758626</ele>
        <time>2026-09-03T16:08:44.929Z</time>
      </trkpt>
      <trkpt lat="47.26387" lon="-1.72204">
        <ele>73.104948</ele>
        <time>2026-09-03T16:08:55.211Z</time>
      </trkpt>
      <trkpt lat="47.26351" lon="-1.72184">
        <ele>73.501996</ele>
        <time>2026-09-03T16:09:07.120Z</time>
      </trkpt>
      <trkpt lat="47.26314" lon="-1.72158">
        <ele>73.918151</ele>
        <time>2026-09-03T16:09:19.170Z</time>
      </trkpt>
      <trkpt lat="47.26299" lon="-1.72142">
        <ele>73.974934</ele>
        <time>2026-09-03T16:09:24.644Z</time>
      </trkpt>
      <trkpt lat="47.26276" lon="-1.72116">
        <ele>73.955252</ele>
        <time>2026-09-03T16:09:32.551Z</time>
      </trkpt>
      <trkpt lat="47.26263" lon="-1.72095">
        <ele>73.942108</ele>
        <time>2026-09-03T16:09:37.672Z</time>
      </trkpt>
      <trkpt lat="47.26254" lon="-1.72067">
        <ele>73.927551</ele>
        <time>2026-09-03T16:09:43.149Z</time>
      </trkpt>
      <trkpt lat="47.26228" lon="-1.71986">
        <ele>73.886139</ele>
        <time>2026-09-03T16:09:58.053Z</time>
      </trkpt>
      <trkpt lat="47.262" lon="-1.71928">
        <ele>73.739098</ele>
        <time>2026-09-03T16:10:09.436Z</time>
      </trkpt>
      <trkpt lat="47.26173" lon="-1.71901">
        <ele>73.379368</ele>
        <time>2026-09-03T16:10:17.005Z</time>
      </trkpt>
      <trkpt lat="47.26158" lon="-1.71833">
        <ele>72.839515</ele>
        <time>2026-09-03T16:10:28.378Z</time>
      </trkpt>
      <trkpt lat="47.26144" lon="-1.7179">
        <ele>72.485288</ele>
        <time>2026-09-03T16:10:35.671Z</time>
      </trkpt>
      <trkpt lat="47.26177" lon="-1.71775">
        <ele>72.103986</ele>
        <time>2026-09-03T16:10:39.644Z</time>
      </trkpt>
      <trkpt lat="47.26175" lon="-1.71756">
        <ele>71.963013</ele>
        <time>2026-09-03T16:10:41.397Z</time>
      </trkpt>
      <trkpt lat="47.2615" lon="-1.71692">
        <ele>71.282874</ele>
        <time>2026-09-03T16:10:48.498Z</time>
      </trkpt>
      <trkpt lat="47.26132" lon="-1.71643">
        <ele>70.755239</ele>
        <time>2026-09-03T16:10:53.930Z</time>
      </trkpt>
      <trkpt lat="47.26124" lon="-1.71618">
        <ele>70.497484</ele>
        <time>2026-09-03T16:10:56.504Z</time>
      </trkpt>
      <trkpt lat="47.26123" lon="-1.71606">
        <ele>70.378544</ele>
        <time>2026-09-03T16:10:57.679Z</time>
      </trkpt>
      <trkpt lat="47.26126" lon="-1.71577">
        <ele>70.09543</ele>
        <time>2026-09-03T16:11:00.407Z</time>
      </trkpt>
      <trkpt lat="47.26137" lon="-1.71559">
        <ele>69.869261</ele>
        <time>2026-09-03T16:11:02.555Z</time>
      </trkpt>
      <trkpt lat="47.26192" lon="-1.71494">
        <ele>68.236463</ele>
        <time>2026-09-03T16:11:11.522Z</time>
      </trkpt>
      <trkpt lat="47.26202" lon="-1.71475">
        <ele>67.691571</ele>
        <time>2026-09-03T16:11:13.507Z</time>
      </trkpt>
      <trkpt lat="47.26211" lon="-1.7145">
        <ele>67.041351</ele>
        <time>2026-09-03T16:11:15.812Z</time>
      </trkpt>
      <trkpt lat="47.26218" lon="-1.71416">
        <ele>66.241654</ele>
        <time>2026-09-03T16:11:18.615Z</time>
      </trkpt>
      <trkpt lat="47.26242" lon="-1.71268">
        <ele>62.90583</ele>
        <time>2026-09-03T16:11:30.516Z</time>
      </trkpt>
      <trkpt lat="47.26275" lon="-1.71078">
        <ele>59.387954</ele>
        <time>2026-09-03T16:11:46.689Z</time>
      </trkpt>
      <trkpt lat="47.26324" lon="-1.70789">
        <ele>57.481359</ele>
        <time>2026-09-03T16:12:15.954Z</time>
      </trkpt>
      <trkpt lat="47.26326" lon="-1.70742">
        <ele>57.510269</ele>
        <time>2026-09-03T16:12:21.580Z</time>
      </trkpt>
      <trkpt lat="47.2632" lon="-1.7069">
        <ele>57.62702</ele>
        <time>2026-09-03T16:12:28.323Z</time>
      </trkpt>
      <trkpt lat="47.26299" lon="-1.70591">
        <ele>57.855644</ele>
        <time>2026-09-03T16:12:41.724Z</time>
      </trkpt>
      <trkpt lat="47.26284" lon="-1.7052">
        <ele>58.003717</ele>
        <time>2026-09-03T16:12:50.044Z</time>
      </trkpt>
      <trkpt lat="47.26267" lon="-1.70478">
        <ele>57.653958</ele>
        <time>2026-09-03T16:12:54.872Z</time>
      </trkpt>
      <trkpt lat="47.2621" lon="-1.70365">
        <ele>56.643453</ele>
        <time>2026-09-03T16:13:07.638Z</time>
      </trkpt>
      <trkpt lat="47.26072" lon="-1.70479">
        <ele>56.190468</ele>
        <time>2026-09-03T16:13:26.180Z</time>
      </trkpt>
      <trkpt lat="47.26063" lon="-1.70487">
        <ele>56.198951</ele>
        <time>2026-09-03T16:13:27.947Z</time>
      </trkpt>
      <trkpt lat="47.26034" lon="-1.70511">
        <ele>56.225098</ele>
        <time>2026-09-03T16:13:34.756Z</time>
      </trkpt>
      <trkpt lat="47.25971" lon="-1.70568">
        <ele>57.241865</ele>
        <time>2026-09-03T16:13:53.540Z</time>
      </trkpt>
      <trkpt lat="47.25921" lon="-1.70622">
        <ele>58.573478</ele>
        <time>2026-09-03T16:14:09.692Z</time>
      </trkpt>
      <trkpt lat="47.25904" lon="-1.70645">
        <ele>59.074778</ele>
        <time>2026-09-03T16:14:15.309Z</time>
      </trkpt>
      <trkpt lat="47.25777" lon="-1.70754">
        <ele>61.208245</ele>
        <time>2026-09-03T16:14:45.210Z</time>
      </trkpt>
      <trkpt lat="47.25755" lon="-1.70759">
        <ele>61.447531</ele>
        <time>2026-09-03T16:14:49.444Z</time>
      </trkpt>
      <trkpt lat="47.25648" lon="-1.70751">
        <ele>62.513038</ele>
        <time>2026-09-03T16:15:09.864Z</time>
      </trkpt>
      <trkpt lat="47.25595" lon="-1.70744">
        <ele>62.974464</ele>
        <time>2026-09-03T16:15:20.087Z</time>
      </trkpt>
      <trkpt lat="47.25591" lon="-1.70717">
        <ele>63.133352</ele>
        <time>2026-09-03T16:15:23.598Z</time>
      </trkpt>
      <trkpt lat="47.25563" lon="-1.7058">
        <ele>63.577379</ele>
        <time>2026-09-03T16:15:42.077Z</time>
      </trkpt>
      <trkpt lat="47.25575" lon="-1.70546">
        <ele>63.526289</ele>
        <time>2026-09-03T16:15:46.792Z</time>
      </trkpt>
      <trkpt lat="47.25601" lon="-1.70489">
        <ele>63.435389</ele>
        <time>2026-09-03T16:15:54.308Z</time>
      </trkpt>
      <trkpt lat="47.25618" lon="-1.70467">
        <ele>63.390574</ele>
        <time>2026-09-03T16:15:57.750Z</time>
      </trkpt>
      <trkpt lat="47.25711" lon="-1.70384">
        <ele>62.553755</ele>
        <time>2026-09-03T16:16:12.265Z</time>
      </trkpt>
      <trkpt lat="47.25778" lon="-1.70338">
        <ele>61.660527</ele>
        <time>2026-09-03T16:16:22.105Z</time>
      </trkpt>
      <trkpt lat="47.25797" lon="-1.70321">
        <ele>61.397276</ele>
        <time>2026-09-03T16:16:25.181Z</time>
      </trkpt>
      <trkpt lat="47.258" lon="-1.70312">
        <ele>61.315634</ele>
        <time>2026-09-03T16:16:26.144Z</time>
      </trkpt>
      <trkpt lat="47.25772" lon="-1.70204">
        <ele>61.132606</ele>
        <time>2026-09-03T16:16:38.317Z</time>
      </trkpt>
      <trkpt lat="47.25711" lon="-1.69987">
        <ele>60.645389</ele>
        <time>2026-09-03T16:17:05.676Z</time>
      </trkpt>
      <trkpt lat="47.25671" lon="-1.69808">
        <ele>59.136761</ele>
        <time>2026-09-03T16:17:22.560Z</time>
      </trkpt>
      <trkpt lat="47.2567" lon="-1.69761">
        <ele>58.67886</ele>
        <time>2026-09-03T16:17:26.660Z</time>
      </trkpt>
      <trkpt lat="47.25664" lon="-1.69722">
        <ele>58.260029</ele>
        <time>2026-09-03T16:17:30.174Z</time>
      </trkpt>
      <trkpt lat="47.25656" lon="-1.69696">
        <ele>57.959415</ele>
        <time>2026-09-03T16:17:32.692Z</time>
      </trkpt>
      <trkpt lat="47.25647" lon="-1.69681">
        <ele>57.755665</ele>
        <time>2026-09-03T16:17:34.397Z</time>
      </trkpt>
      <trkpt lat="47.25602" lon="-1.69667">
        <ele>57.049795</ele>
        <time>2026-09-03T16:17:40.397Z</time>
      </trkpt>
      <trkpt lat="47.25528" lon="-1.69655">
        <ele>56.055595</ele>
        <time>2026-09-03T16:17:51.066Z</time>
      </trkpt>
      <trkpt lat="47.25504" lon="-1.69647">
        <ele>55.83636</ele>
        <time>2026-09-03T16:17:54.821Z</time>
      </trkpt>
      <trkpt lat="47.25496" lon="-1.69642">
        <ele>55.765686</ele>
        <time>2026-09-03T16:17:56.035Z</time>
      </trkpt>
      <trkpt lat="47.25428" lon="-1.69602">
        <ele>55.12741</ele>
        <time>2026-09-03T16:18:06.790Z</time>
      </trkpt>
      <trkpt lat="47.25478" lon="-1.69449">
        <ele>53.567543</ele>
        <time>2026-09-03T16:18:33.093Z</time>
      </trkpt>
      <trkpt lat="47.255" lon="-1.69429">
        <ele>53.12689</ele>
        <time>2026-09-03T16:18:38.531Z</time>
      </trkpt>
      <trkpt lat="47.25522" lon="-1.69413">
        <ele>52.697008</ele>
        <time>2026-09-03T16:18:43.888Z</time>
      </trkpt>
      <trkpt lat="47.25544" lon="-1.69388">
        <ele>52.207076</ele>
        <time>2026-09-03T16:18:50.037Z</time>
      </trkpt>
      <trkpt lat="47.25566" lon="-1.69353">
        <ele>51.649048</ele>
        <time>2026-09-03T16:18:57.082Z</time>
      </trkpt>
      <trkpt lat="47.25574" lon="-1.69333">
        <ele>51.407024</ele>
        <time>2026-09-03T16:19:00.609Z</time>
      </trkpt>
      <trkpt lat="47.2557" lon="-1.69292">
        <ele>51.021506</ele>
        <time>2026-09-03T16:19:06.833Z</time>
      </trkpt>
      <trkpt lat="47.25574" lon="-1.69221">
        <ele>50.348404</ele>
        <time>2026-09-03T16:19:17.784Z</time>
      </trkpt>
      <trkpt lat="47.2557" lon="-1.69187">
        <ele>50.027507</ele>
        <time>2026-09-03T16:19:22.992Z</time>
      </trkpt>
      <trkpt lat="47.25552" lon="-1.69118">
        <ele>49.324802</ele>
        <time>2026-09-03T16:19:34.613Z</time>
      </trkpt>
      <trkpt lat="47.25551" lon="-1.69087">
        <ele>49.049084</ele>
        <time>2026-09-03T16:19:39.531Z</time>
      </trkpt>
      <trkpt lat="47.25551" lon="-1.69038">
        <ele>49.136592</ele>
        <time>2026-09-03T16:19:47.444Z</time>
      </trkpt>
      <trkpt lat="47.25557" lon="-1.69033">
        <ele>49.156239</ele>
        <time>2026-09-03T16:19:48.966Z</time>
      </trkpt>
      <trkpt lat="47.25551" lon="-1.69016">
        <ele>49.190894</ele>
        <time>2026-09-03T16:19:50.929Z</time>
      </trkpt>
      <trkpt lat="47.25525" lon="-1.68941">
        <ele>49.341977</ele>
        <time>2026-09-03T16:20:00.289Z</time>
      </trkpt>
      <trkpt lat="47.25507" lon="-1.68902">
        <ele>49.426512</ele>
        <time>2026-09-03T16:20:06.648Z</time>
      </trkpt>
      <trkpt lat="47.25495" lon="-1.68886">
        <ele>49.468502</ele>
        <time>2026-09-03T16:20:10.045Z</time>
      </trkpt>
      <trkpt lat="47.25453" lon="-1.6885">
        <ele>49.811326</ele>
        <time>2026-09-03T16:20:19.966Z</time>
      </trkpt>
      <trkpt lat="47.25443" lon="-1.68835">
        <ele>49.958549</ele>
        <time>2026-09-03T16:20:23.086Z</time>
      </trkpt>
      <trkpt lat="47.25435" lon="-1.6882">
        <ele>50.08964</ele>
        <time>2026-09-03T16:20:26.024Z</time>
      </trkpt>
      <trkpt lat="47.25429" lon="-1.68787">
        <ele>50.322593</ele>
        <time>2026-09-03T16:20:31.149Z</time>
      </trkpt>
      <trkpt lat="47.25438" lon="-1.68725">
        <ele>50.763786</ele>
        <time>2026-09-03T16:20:39.992Z</time>
      </trkpt>
      <trkpt lat="47.25437" lon="-1.68707">
        <ele>50.890886</ele>
        <time>2026-09-03T16:20:42.314Z</time>
      </trkpt>
      <trkpt lat="47.25419" lon="-1.68695">
        <ele>51.090471</ele>
        <time>2026-09-03T16:20:45.904Z</time>
      </trkpt>
      <trkpt lat="47.25409" lon="-1.68683">
        <ele>51.220439</ele>
        <time>2026-09-03T16:20:48.084Z</time>
      </trkpt>
      <trkpt lat="47.25402" lon="-1.68669">
        <ele>51.339793</ele>
        <time>2026-09-03T16:20:49.951Z</time>
      </trkpt>
      <trkpt lat="47.25397" lon="-1.68652">
        <ele>51.326303</ele>
        <time>2026-09-03T16:20:51.880Z</time>
      </trkpt>
      <trkpt lat="47.25379" lon="-1.6849">
        <ele>51.136357</ele>
        <time>2026-09-03T16:21:08.642Z</time>
      </trkpt>
      <trkpt lat="47.25374" lon="-1.68473">
        <ele>51.114725</ele>
        <time>2026-09-03T16:21:10.551Z</time>
      </trkpt>
      <trkpt lat="47.25358" lon="-1.68437">
        <ele>51.064215</ele>
        <time>2026-09-03T16:21:15.099Z</time>
      </trkpt>
      <trkpt lat="47.2534" lon="-1.68408">
        <ele>51.077741</ele>
        <time>2026-09-03T16:21:19.287Z</time>
      </trkpt>
      <trkpt lat="47.25339" lon="-1.68407">
        <ele>51.081467</ele>
        <time>2026-09-03T16:21:19.478Z</time>
      </trkpt>
      <trkpt lat="47.25305" lon="-1.68352">
        <ele>51.238871</ele>
        <time>2026-09-03T16:21:27.858Z</time>
      </trkpt>
      <trkpt lat="47.25293" lon="-1.68323">
        <ele>51.31271</ele>
        <time>2026-09-03T16:21:31.860Z</time>
      </trkpt>
      <trkpt lat="47.25291" lon="-1.68304">
        <ele>51.351769</ele>
        <time>2026-09-03T16:21:34.032Z</time>
      </trkpt>
      <trkpt lat="47.25292" lon="-1.68286">
        <ele>51.391969</ele>
        <time>2026-09-03T16:21:36.299Z</time>
      </trkpt>
      <trkpt lat="47.25304" lon="-1.68212">
        <ele>51.551672</ele>
        <time>2026-09-03T16:21:45.426Z</time>
      </trkpt>
      <trkpt lat="47.25302" lon="-1.68181">
        <ele>51.663718</ele>
        <time>2026-09-03T16:21:49.134Z</time>
      </trkpt>
      <trkpt lat="47.25277" lon="-1.68118">
        <ele>52.258331</ele>
        <time>2026-09-03T16:21:58.071Z</time>
      </trkpt>
      <trkpt lat="47.25236" lon="-1.68063">
        <ele>52.926662</ele>
        <time>2026-09-03T16:22:08.537Z</time>
      </trkpt>
      <trkpt lat="47.25218" lon="-1.6803">
        <ele>53.278293</ele>
        <time>2026-09-03T16:22:14.617Z</time>
      </trkpt>
      <trkpt lat="47.2521" lon="-1.68016">
        <ele>53.427617</ele>
        <time>2026-09-03T16:22:17.336Z</time>
      </trkpt>
      <trkpt lat="47.25203" lon="-1.67989">
        <ele>53.661265</ele>
        <time>2026-09-03T16:22:21.764Z</time>
      </trkpt>
      <trkpt lat="47.25201" lon="-1.67947">
        <ele>54.350649</ele>
        <time>2026-09-03T16:22:28.489Z</time>
      </trkpt>
      <trkpt lat="47.25174" lon="-1.67938">
        <ele>55.169706</ele>
        <time>2026-09-03T16:22:37.875Z</time>
      </trkpt>
      <trkpt lat="47.25061" lon="-1.67837">
        <ele>59.144715</ele>
        <time>2026-09-03T16:23:27.583Z</time>
      </trkpt>
      <trkpt lat="47.25045" lon="-1.67829">
        <ele>59.619709</ele>
        <time>2026-09-03T16:23:34.076Z</time>
      </trkpt>
      <trkpt lat="47.25025" lon="-1.6784">
        <ele>60.215474</ele>
        <time>2026-09-03T16:23:42.122Z</time>
      </trkpt>
      <trkpt lat="47.24956" lon="-1.67856">
        <ele>62.205854</ele>
        <time>2026-09-03T16:24:07.921Z</time>
      </trkpt>
      <trkpt lat="47.24904" lon="-1.67872">
        <ele>63.706456</ele>
        <time>2026-09-03T16:24:26.130Z</time>
      </trkpt>
      <trkpt lat="47.24901" lon="-1.67895">
        <ele>64.148957</ele>
        <time>2026-09-03T16:24:31.311Z</time>
      </trkpt>
      <trkpt lat="47.24907" lon="-1.67964">
        <ele>64.762927</ele>
        <time>2026-09-03T16:24:46.544Z</time>
      </trkpt>
      <trkpt lat="47.24897" lon="-1.68045">
        <ele>65.408854</ele>
        <time>2026-09-03T16:25:03.671Z</time>
      </trkpt>
      <trkpt lat="47.24901" lon="-1.68095">
        <ele>65.798669</ele>
        <time>2026-09-03T16:25:13.413Z</time>
      </trkpt>
      <trkpt lat="47.24903" lon="-1.68164">
        <ele>66.332079</ele>
        <time>2026-09-03T16:25:26.168Z</time>
      </trkpt>
      <trkpt lat="47.24896" lon="-1.6825">
        <ele>66.245098</ele>
        <time>2026-09-03T16:25:40.810Z</time>
      </trkpt>
      <trkpt lat="47.24899" lon="-1.68256">
        <ele>66.237472</ele>
        <time>2026-09-03T16:25:42.065Z</time>
      </trkpt>
      <trkpt lat="47.24916" lon="-1.68263">
        <ele>66.211385</ele>
        <time>2026-09-03T16:25:46.329Z</time>
      </trkpt>
      <trkpt lat="47.24918" lon="-1.68277">
        <ele>66.197187</ele>
        <time>2026-09-03T16:25:48.637Z</time>
      </trkpt>
      <trkpt lat="47.24917" lon="-1.68347">
        <ele>66.12622</ele>
        <time>2026-09-03T16:26:00.189Z</time>
      </trkpt>
      <trkpt lat="47.24913" lon="-1.68402">
        <ele>66.070828</ele>
        <time>2026-09-03T16:26:09.534Z</time>
      </trkpt>
      <trkpt lat="47.24914" lon="-1.6846">
        <ele>66.195407</ele>
        <time>2026-09-03T16:26:20.096Z</time>
      </trkpt>
      <trkpt lat="47.24834" lon="-1.68463">
        <ele>66.476748</ele>
        <time>2026-09-03T16:26:42.418Z</time>
      </trkpt>
      <trkpt lat="47.24808" lon="-1.68451">
        <ele>66.574336</ele>
        <time>2026-09-03T16:26:50.064Z</time>
      </trkpt>
      <trkpt lat="47.24796" lon="-1.68428">
        <ele>66.645177</ele>
        <time>2026-09-03T16:26:55.497Z</time>
      </trkpt>
      <trkpt lat="47.24793" lon="-1.68423">
        <ele>66.660227</ele>
        <time>2026-09-03T16:26:56.619Z</time>
      </trkpt>
      <trkpt lat="47.24765" lon="-1.68368">
        <ele>66.402997</ele>
        <time>2026-09-03T16:27:08.437Z</time>
      </trkpt>
      <trkpt lat="47.2474" lon="-1.68312">
        <ele>66.024628</ele>
        <time>2026-09-03T16:27:19.377Z</time>
      </trkpt>
      <trkpt lat="47.2473" lon="-1.68253">
        <ele>65.680661</ele>
        <time>2026-09-03T16:27:28.964Z</time>
      </trkpt>
      <trkpt lat="47.24715" lon="-1.68196">
        <ele>65.334986</ele>
        <time>2026-09-03T16:27:38.471Z</time>
      </trkpt>
      <trkpt lat="47.24673" lon="-1.68102">
        <ele>64.315351</ele>
        <time>2026-09-03T16:27:55.551Z</time>
      </trkpt>
      <trkpt lat="47.24664" lon="-1.68086">
        <ele>64.116497</ele>
        <time>2026-09-03T16:27:58.531Z</time>
      </trkpt>
      <trkpt lat="47.24656" lon="-1.6808">
        <ele>63.976842</ele>
        <time>2026-09-03T16:28:00.635Z</time>
      </trkpt>
      <trkpt lat="47.24648" lon="-1.68078">
        <ele>63.865148</ele>
        <time>2026-09-03T16:28:02.315Z</time>
      </trkpt>
      <trkpt lat="47.24625" lon="-1.68072">
        <ele>63.522325</ele>
        <time>2026-09-03T16:28:07.521Z</time>
      </trkpt>
      <trkpt lat="47.24598" lon="-1.68045">
        <ele>63.035706</ele>
        <time>2026-09-03T16:28:15.077Z</time>
      </trkpt>
      <trkpt lat="47.24571" lon="-1.68023">
        <ele>62.582993</ele>
        <time>2026-09-03T16:28:22.221Z</time>
      </trkpt>
      <trkpt lat="47.24557" lon="-1.68021">
        <ele>62.526096</ele>
        <time>2026-09-03T16:28:25.556Z</time>
      </trkpt>
      <trkpt lat="47.24507" lon="-1.67983">
        <ele>62.369664</ele>
        <time>2026-09-03T16:28:39.008Z</time>
      </trkpt>
      <trkpt lat="47.24465" lon="-1.67963">
        <ele>62.246178</ele>
        <time>2026-09-03T16:28:50.075Z</time>
      </trkpt>
      <trkpt lat="47.24434" lon="-1.67935">
        <ele>62.146784</ele>
        <time>2026-09-03T16:28:59.584Z</time>
      </trkpt>
      <trkpt lat="47.2441" lon="-1.67903">
        <ele>62.063427</ele>
        <time>2026-09-03T16:29:08.213Z</time>
      </trkpt>
      <trkpt lat="47.24392" lon="-1.67889">
        <ele>62.09931</ele>
        <time>2026-09-03T16:29:13.514Z</time>
      </trkpt>
      <trkpt lat="47.24382" lon="-1.67891">
        <ele>62.116551</ele>
        <time>2026-09-03T16:29:16.085Z</time>
      </trkpt>
      <trkpt lat="47.24381" lon="-1.67881">
        <ele>62.127911</ele>
        <time>2026-09-03T16:29:16.994Z</time>
      </trkpt>
      <trkpt lat="47.24377" lon="-1.67853">
        <ele>62.162111</ele>
        <time>2026-09-03T16:29:19.770Z</time>
      </trkpt>
      <trkpt lat="47.24356" lon="-1.67851">
        <ele>62.200265</ele>
        <time>2026-09-03T16:29:25.402Z</time>
      </trkpt>
      <trkpt lat="47.24338" lon="-1.67844">
        <ele>62.232973</ele>
        <time>2026-09-03T16:29:30.298Z</time>
      </trkpt>
      <trkpt lat="47.24271" lon="-1.68134">
        <ele>62.106793</ele>
        <time>2026-09-03T16:30:24.039Z</time>
      </trkpt>
      <trkpt lat="47.24253" lon="-1.68211">
        <ele>61.972988</ele>
        <time>2026-09-03T16:30:37.308Z</time>
      </trkpt>
      <trkpt lat="47.24221" lon="-1.68345">
        <ele>60.832531</ele>
        <time>2026-09-03T16:30:50.610Z</time>
      </trkpt>
      <trkpt lat="47.24212" lon="-1.68398">
        <ele>60.398244</ele>
        <time>2026-09-03T16:30:55.627Z</time>
      </trkpt>
      <trkpt lat="47.24205" lon="-1.6842">
        <ele>60.201661</ele>
        <time>2026-09-03T16:30:57.888Z</time>
      </trkpt>
      <trkpt lat="47.242" lon="-1.6843">
        <ele>60.10366</ele>
        <time>2026-09-03T16:30:59.018Z</time>
      </trkpt>
      <trkpt lat="47.24183" lon="-1.68446">
        <ele>59.869842</ele>
        <time>2026-09-03T16:31:01.707Z</time>
      </trkpt>
      <trkpt lat="47.24158" lon="-1.68466">
        <ele>59.223064</ele>
        <time>2026-09-03T16:31:05.657Z</time>
      </trkpt>
      <trkpt lat="47.24138" lon="-1.68483">
        <ele>58.712073</ele>
        <time>2026-09-03T16:31:08.718Z</time>
      </trkpt>
      <trkpt lat="47.24129" lon="-1.6849">
        <ele>58.473365</ele>
        <time>2026-09-03T16:31:10.146Z</time>
      </trkpt>
      <trkpt lat="47.24106" lon="-1.68508">
        <ele>57.896846</ele>
        <time>2026-09-03T16:31:13.520Z</time>
      </trkpt>
      <trkpt lat="47.24095" lon="-1.68518">
        <ele>57.617886</ele>
        <time>2026-09-03T16:31:15.126Z</time>
      </trkpt>
      <trkpt lat="47.24085" lon="-1.68535">
        <ele>57.271035</ele>
        <time>2026-09-03T16:31:17.086Z</time>
      </trkpt>
      <trkpt lat="47.24062" lon="-1.686">
        <ele>56.163307</ele>
        <time>2026-09-03T16:31:23.135Z</time>
      </trkpt>
      <trkpt lat="47.24066" lon="-1.68625">
        <ele>55.723294</ele>
        <time>2026-09-03T16:31:24.904Z</time>
      </trkpt>
      <trkpt lat="47.24066" lon="-1.68672">
        <ele>54.620185</ele>
        <time>2026-09-03T16:31:28.042Z</time>
      </trkpt>
      <trkpt lat="47.24056" lon="-1.68854">
        <ele>50.333699</ele>
        <time>2026-09-03T16:31:40.244Z</time>
      </trkpt>
      <trkpt lat="47.2405" lon="-1.68912">
        <ele>49.037356</ele>
        <time>2026-09-03T16:31:44.241Z</time>
      </trkpt>
      <trkpt lat="47.24049" lon="-1.68916">
        <ele>48.95226</ele>
        <time>2026-09-03T16:31:44.524Z</time>
      </trkpt>
      <trkpt lat="47.24038" lon="-1.69051">
        <ele>46.144455</ele>
        <time>2026-09-03T16:31:54.014Z</time>
      </trkpt>
      <trkpt lat="47.24028" lon="-1.69115">
        <ele>44.807246</ele>
        <time>2026-09-03T16:31:58.495Z</time>
      </trkpt>
      <trkpt lat="47.23993" lon="-1.69281">
        <ele>41.601932</ele>
        <time>2026-09-03T16:32:10.511Z</time>
      </trkpt>
      <trkpt lat="47.23986" lon="-1.69346">
        <ele>40.409769</ele>
        <time>2026-09-03T16:32:15.185Z</time>
      </trkpt>
      <trkpt lat="47.23967" lon="-1.6959">
        <ele>37.676215</ele>
        <time>2026-09-03T16:32:33.358Z</time>
      </trkpt>
      <trkpt lat="47.23967" lon="-1.69603">
        <ele>37.55956</ele>
        <time>2026-09-03T16:32:34.432Z</time>
      </trkpt>
      <trkpt lat="47.23972" lon="-1.69621">
        <ele>37.385074</ele>
        <time>2026-09-03T16:32:36.066Z</time>
      </trkpt>
      <trkpt lat="47.23992" lon="-1.69675">
        <ele>37.134711</ele>
        <time>2026-09-03T16:32:46.829Z</time>
      </trkpt>
      <trkpt lat="47.23999" lon="-1.69712">
        <ele>37.421996</ele>
        <time>2026-09-03T16:32:53.970Z</time>
      </trkpt>
      <trkpt lat="47.24037" lon="-1.69831">
        <ele>38.424285</ele>
        <time>2026-09-03T16:33:21.456Z</time>
      </trkpt>
      <trkpt lat="47.24051" lon="-1.69891">
        <ele>38.904055</ele>
        <time>2026-09-03T16:33:35.287Z</time>
      </trkpt>
      <trkpt lat="47.24045" lon="-1.6992">
        <ele>39.06407</ele>
        <time>2026-09-03T16:33:41.801Z</time>
      </trkpt>
      <trkpt lat="47.24065" lon="-1.69975">
        <ele>39.266792</ele>
        <time>2026-09-03T16:33:54.264Z</time>
      </trkpt>
      <trkpt lat="47.24084" lon="-1.70065">
        <ele>39.578836</ele>
        <time>2026-09-03T16:34:12.122Z</time>
      </trkpt>
      <trkpt lat="47.24118" lon="-1.70195">
        <ele>39.239421</ele>
        <time>2026-09-03T16:34:35.421Z</time>
      </trkpt>
      <trkpt lat="47.24123" lon="-1.70265">
        <ele>38.303406</ele>
        <time>2026-09-03T16:34:46.259Z</time>
      </trkpt>
      <trkpt lat="47.2413" lon="-1.70311">
        <ele>37.680501</ele>
        <time>2026-09-03T16:34:53.194Z</time>
      </trkpt>
      <trkpt lat="47.24115" lon="-1.70512">
        <ele>34.137555</ele>
        <time>2026-09-03T16:35:08.956Z</time>
      </trkpt>
      <trkpt lat="47.24112" lon="-1.70595">
        <ele>32.310556</ele>
        <time>2026-09-03T16:35:15.425Z</time>
      </trkpt>
      <trkpt lat="47.24102" lon="-1.7069">
        <ele>30.321807</ele>
        <time>2026-09-03T16:35:22.921Z</time>
      </trkpt>
      <trkpt lat="47.24093" lon="-1.70723">
        <ele>29.746379</ele>
        <time>2026-09-03T16:35:25.744Z</time>
      </trkpt>
      <trkpt lat="47.24079" lon="-1.70754">
        <ele>29.146384</ele>
        <time>2026-09-03T16:35:28.708Z</time>
      </trkpt>
      <trkpt lat="47.24065" lon="-1.7081">
        <ele>28.182754</ele>
        <time>2026-09-03T16:35:33.506Z</time>
      </trkpt>
      <trkpt lat="47.24069" lon="-1.70895">
        <ele>26.819827</ele>
        <time>2026-09-03T16:35:40.532Z</time>
      </trkpt>
      <trkpt lat="47.24067" lon="-1.70946">
        <ele>26.323573</ele>
        <time>2026-09-03T16:35:45.029Z</time>
      </trkpt>
      <trkpt lat="47.24036" lon="-1.70979">
        <ele>26.338258</ele>
        <time>2026-09-03T16:35:50.401Z</time>
      </trkpt>
      <trkpt lat="47.23988" lon="-1.71054">
        <ele>26.36531</ele>
        <time>2026-09-03T16:36:01.870Z</time>
      </trkpt>
      <trkpt lat="47.23966" lon="-1.71074">
        <ele>26.375061</ele>
        <time>2026-09-03T16:36:06.939Z</time>
      </trkpt>
      <trkpt lat="47.23958" lon="-1.71079">
        <ele>26.378531</ele>
        <time>2026-09-03T16:36:08.818Z</time>
      </trkpt>
      <trkpt lat="47.23945" lon="-1.71108">
        <ele>26.386978</ele>
        <time>2026-09-03T16:36:13.774Z</time>
      </trkpt>
      <trkpt lat="47.23931" lon="-1.71152">
        <ele>26.342983</ele>
        <time>2026-09-03T16:36:20.599Z</time>
      </trkpt>
      <trkpt lat="47.23911" lon="-1.71238">
        <ele>26.260448</ele>
        <time>2026-09-03T16:36:31.891Z</time>
      </trkpt>
      <trkpt lat="47.23887" lon="-1.71294">
        <ele>26.200193</ele>
        <time>2026-09-03T16:36:38.286Z</time>
      </trkpt>
      <trkpt lat="47.23872" lon="-1.71302">
        <ele>26.17912</ele>
        <time>2026-09-03T16:36:40.317Z</time>
      </trkpt>
      <trkpt lat="47.23863" lon="-1.71318">
        <ele>26.160202</ele>
        <time>2026-09-03T16:36:42.083Z</time>
      </trkpt>
      <trkpt lat="47.23852" lon="-1.71415">
        <ele>24.857841</ele>
        <time>2026-09-03T16:36:49.973Z</time>
      </trkpt>
      <trkpt lat="47.23849" lon="-1.71438">
        <ele>24.486275</ele>
        <time>2026-09-03T16:36:51.851Z</time>
      </trkpt>
      <trkpt lat="47.23828" lon="-1.71554">
        <ele>22.635674</ele>
        <time>2026-09-03T16:37:01.394Z</time>
      </trkpt>
      <trkpt lat="47.23814" lon="-1.7165">
        <ele>21.907841</ele>
        <time>2026-09-03T16:37:10.266Z</time>
      </trkpt>
      <trkpt lat="47.23807" lon="-1.7167">
        <ele>21.855862</ele>
        <time>2026-09-03T16:37:12.494Z</time>
      </trkpt>
      <trkpt lat="47.23791" lon="-1.71706">
        <ele>21.757318</ele>
        <time>2026-09-03T16:37:16.913Z</time>
      </trkpt>
      <trkpt lat="47.23775" lon="-1.71768">
        <ele>21.603358</ele>
        <time>2026-09-03T16:37:24.458Z</time>
      </trkpt>
      <trkpt lat="47.2376" lon="-1.71804">
        <ele>21.506627</ele>
        <time>2026-09-03T16:37:29.336Z</time>
      </trkpt>
      <trkpt lat="47.23717" lon="-1.71857">
        <ele>21.436427</ele>
        <time>2026-09-03T16:37:38.152Z</time>
      </trkpt>
      <trkpt lat="47.23706" lon="-1.7188">
        <ele>21.436427</ele>
        <time>2026-09-03T16:37:40.804Z</time>
      </trkpt>
      <trkpt lat="47.23686" lon="-1.71936">
        <ele>21.436427</ele>
        <time>2026-09-03T16:37:46.671Z</time>
      </trkpt>
      <trkpt lat="47.23657" lon="-1.71991">
        <ele>21.436427</ele>
        <time>2026-09-03T16:37:53.020Z</time>
      </trkpt>
    </trkseg>
  </trk>
</gpx>